METAR Data
IDs: Format: Raw Decoded Include TAF

Data at: 2126 UTC 18 Sep 2018

KHHV 182120Z AUTO 07006KT 10SM FEW025 36/23 A2995 RMK A01
KHHV 182100Z AUTO 07005KT 10SM CLR 35/23 A2995 RMK A01
KHHV 182040Z AUTO 08006KT 10SM CLR 35/23 A2995 RMK A01
KHHV 182020Z AUTO 08008KT 10SM CLR 34/23 A2995 RMK A01
KHHV 182000Z AUTO 06005KT 10SM CLR 34/23 A2996 RMK A01
KHHV 181935Z AUTO 06006KT 10SM CLR 35/23 A2997 RMK A01
KHHV 181915Z AUTO 06004KT 10SM FEW023 FEW029 35/23 A2998 RMK A01
KHHV 181855Z AUTO 04004KT 10SM FEW023 FEW030 35/23 A2999 RMK A01
KHHV 181835Z AUTO 04003KT 10SM FEW022 SCT031 34/24 A2999 RMK A01
KHHV 181820Z AUTO 00000KT 10SM FEW032 35/24 A3000 RMK A01
KHHV 181800Z AUTO 00000KT 10SM FEW027 34/24 A3000 RMK A01
KHHV 181740Z AUTO 00000KT 10SM FEW024 35/24 A3001 RMK A01
KHHV 181720Z AUTO 00000KT 10SM FEW022 34/24 A3002 RMK A01
KHHV 181700Z AUTO 00000KT 10SM FEW021 34/24 A3002 RMK A01
KHHV 181640Z AUTO 04004KT 10SM BKN021 33/24 A3002 RMK A01
KHHV 181620Z AUTO 00000KT 10SM SCT020 33/24 A3002 RMK A01
KHHV 181555Z AUTO 00000KT 10SM FEW019 32/24 A3002 RMK A01
KHHV 181535Z AUTO 00000KT 10SM FEW020 31/23 A3002 RMK A01
KHHV 181515Z AUTO 07004KT 10SM FEW020 31/24 A3002 RMK A01
KHHV 181455Z AUTO 06003KT 10SM CLR 30/24 A3001 RMK A01
KHHV 181435Z AUTO 08003KT 10SM CLR 30/24 A3001 RMK A01
KHHV 181415Z AUTO 08004KT 9SM CLR 30/24 A3001 RMK A01
KHHV 181355Z AUTO 09005KT 9SM CLR 30/24 A3000 RMK A01
KHHV 181340Z AUTO VRB04KT 10SM CLR 29/24 A3000 RMK A01
KHHV 181320Z AUTO 00000KT 10SM CLR 28/24 A3000 RMK A01
KHHV 181255Z AUTO 15004KT 10SM CLR 28/24 A3000 RMK A01
KHHV 181235Z AUTO 00000KT 10SM CLR 28/24 A3000 RMK A01
KHHV 181215Z AUTO 15003KT 10SM CLR 28/23 A3000 RMK A01
KHHV 181155Z AUTO 15003KT 10SM CLR 28/24 A2999 RMK A01
KHHV 181135Z AUTO 00000KT 10SM CLR 28/23 A2999 RMK A01
KHHV 181120Z AUTO 00000KT 10SM CLR 28/23 A2999 RMK A01
KHHV 181100Z AUTO 00000KT 10SM CLR 28/23 A2999 RMK A01
KHHV 181040Z AUTO 00000KT 10SM FEW021 28/23 A2998 RMK A01
KHHV 181020Z AUTO 00000KT 10SM SCT021 28/23 A2998 RMK A01
KHHV 180955Z AUTO 00000KT 10SM CLR 28/24 A2997 RMK A01
KHHV 180935Z AUTO 13005KT 10SM CLR 28/23 A2997 RMK A01
KHHV 180915Z AUTO 15004KT 10SM CLR 28/23 A2997 RMK A01
KHHV 180855Z AUTO 16004KT 10SM CLR 28/23 A2998 RMK A01
KHHV 180835Z AUTO 15005KT 10SM CLR 28/23 A2998 RMK A01
KHHV 180820Z AUTO 15004KT 10SM CLR 28/23 A2998 RMK A01
KHHV 180800Z AUTO 14004KT 10SM CLR 28/23 A2998 RMK A01
KHHV 180740Z AUTO 14004KT 10SM CLR 29/23 A2998 RMK A01
KHHV 180720Z AUTO 14005KT 10SM CLR 29/23 A2998 RMK A01
KHHV 180700Z AUTO 13005KT 10SM CLR 29/23 A2998 RMK A01
KHHV 180640Z AUTO 13005KT 10SM CLR 29/23 A2998 RMK A01
KHHV 180615Z AUTO 13006KT 10SM CLR 29/23 A2999 RMK A01
KHHV 180555Z AUTO 12005KT 10SM CLR 29/23 A2999 RMK A01
KHHV 180535Z AUTO 10005KT 10SM CLR 31/23 A2999 RMK A01
KHHV 180515Z AUTO 10006KT 10SM CLR 31/23 A2999 RMK A01
KHHV 180455Z AUTO 08005KT 10SM CLR 31/23 A3000 RMK A01
KHHV 180435Z AUTO 09006KT 10SM CLR 32/23 A3000 RMK A01
KHHV 180415Z AUTO 10006KT 10SM CLR 31/23 A3000 RMK A01
KHHV 180355Z AUTO 10005KT 10SM CLR 31/23 A3000 RMK A01
KHHV 180340Z AUTO 09007KT 10SM CLR 31/23 A3000 RMK A01
KHHV 180315Z AUTO 09007KT 10SM CLR 32/23 A2999 RMK A01
KHHV 180255Z AUTO 09007KT 10SM CLR 31/23 A2998 RMK A01
KHHV 180235Z AUTO 08008KT 10SM CLR 31/23 A2998 RMK A01
KHHV 180215Z AUTO 08007KT 10SM CLR 31/23 A2997 RMK A01
KHHV 180155Z AUTO 09007KT 10SM CLR 31/23 A2997 RMK A01
KHHV 180135Z AUTO 08007KT 10SM FEW025 31/23 A2996 RMK A01
KHHV 180120Z AUTO 08007KT 10SM FEW025 32/23 A2996 RMK A01
KHHV 180100Z AUTO 08007KT 10SM FEW024 32/23 A2995 RMK A01
KHHV 180040Z AUTO 08008KT 10SM FEW024 32/24 A2995 RMK A01
KHHV 180020Z AUTO 08008KT 10SM CLR 32/23 A2994 RMK A01
KHHV 180000Z AUTO 08009KT 10SM CLR 33/24 A2994 RMK A01
KHHV 172340Z AUTO 07008KT 10SM CLR 33/24 A2994 RMK A01
KHHV 172320Z AUTO 07007KT 10SM SCT028 SCT035 34/24 A2994 RMK A01
KHHV 172300Z AUTO 07007KT 10SM SCT026 BKN031 BKN040 33/24 A2994 RMK A01
KHHV 172240Z AUTO 09006KT 10SM FEW026 BKN040 34/24 A2995 RMK A01
KHHV 172220Z AUTO 07004KT 10SM FEW029 FEW038 35/23 A2995 RMK A01
KHHV 172200Z AUTO 07007KT 10SM FEW028 SCT038 35/24 A2994 RMK A01
KHHV 172140Z AUTO 08004KT 10SM FEW027 35/24 A2995 RMK A01
KHHV 172120Z AUTO 07005KT 10SM FEW026 35/24 A2995 RMK A01
KHHV 172100Z AUTO 08004KT 10SM FEW025 35/24 A2996 RMK A01
KHHV 172040Z AUTO 07004KT 10SM CLR 34/24 A2996 RMK A01
KHHV 172020Z AUTO 07005KT 10SM FEW023 SCT033 SCT041 34/24 A2996 RMK A01
KHHV 172000Z AUTO 07004KT 10SM SCT023 35/24 A2997 RMK A01
KHHV 171935Z AUTO 00000KT 10SM FEW023 36/24 A2998 RMK A01
KHHV 171915Z AUTO 00000KT 10SM CLR 35/24 A2998 RMK A01
KHHV 171855Z AUTO 00000KT 10SM FEW033 35/24 A2999 RMK A01
KHHV 171835Z AUTO 00000KT 10SM SCT030 BKN036 36/24 A2999 RMK A01
KHHV 171815Z AUTO 00000KT 10SM SCT029 BKN034 35/24 A3000 RMK A01
KHHV 171800Z AUTO VRB04KT 10SM SCT030 36/24 A3000 RMK A01
KHHV 171740Z AUTO 00000KT 10SM FEW020 FEW029 36/24 A3001 RMK A01
KHHV 171715Z AUTO VRB04KT 10SM CLR 35/25 A3002 RMK A01
KHHV 171655Z AUTO VRB04KT 10SM CLR 35/25 A3002 RMK A01
KHHV 171635Z AUTO VRB03KT 10SM CLR 35/25 A3002 RMK A01
KHHV 171620Z AUTO 09005KT 10SM CLR 35/25 A3002 RMK A01
KHHV 171600Z AUTO 09005KT 10SM CLR 34/25 A3001 RMK A01
KHHV 171540Z AUTO 09004KT 10SM CLR 32/25 A3001 RMK A01
KHHV 171515Z AUTO VRB04KT 10SM CLR 31/24 A3001 RMK A01
KHHV 171455Z AUTO 09004KT 10SM CLR 31/24 A3000 RMK A01
KHHV 171435Z AUTO 08004KT 10SM CLR 31/24 A3000 RMK A01
KHHV 171420Z AUTO 09004KT 10SM CLR 30/24 A2999 RMK A01
KHHV 171400Z AUTO 00000KT 10SM CLR 29/24 A2999 RMK A01
KHHV 171340Z AUTO 16004KT 10SM CLR 29/24 A2999 RMK A01
KHHV 171320Z AUTO 16004KT 10SM CLR 29/24 A2999 RMK A01
KHHV 171300Z AUTO 17004KT 10SM CLR 29/24 A2998 RMK A01
KHHV 171240Z AUTO 15004KT 10SM CLR 29/24 A2997 RMK A01
KHHV 171215Z AUTO 15004KT 10SM CLR 29/24 A2996 RMK A01
KHHV 171155Z AUTO 18004KT 10SM CLR 29/24 A2996 RMK A01
KHHV 171135Z AUTO 17004KT 10SM FEW019 29/24 A2996 RMK A01
KHHV 171115Z AUTO 16003KT 10SM CLR 29/25 A2995 RMK A01
KHHV 171055Z AUTO 15003KT 10SM CLR 29/25 A2995 RMK A01
KHHV 171035Z AUTO 17005KT 10SM FEW019 29/25 A2995 RMK A01
KHHV 171015Z AUTO 17006KT 10SM SCT020 29/25 A2994 RMK A01
KHHV 170955Z AUTO 17006KT 10SM BKN020 29/24 A2994 RMK A01
KHHV 170935Z AUTO 17005KT 10SM CLR 29/24 A2994 RMK A01
KHHV 170915Z AUTO 16006KT 10SM CLR 29/24 A2994 RMK A01
KHHV 170900Z AUTO 17006KT 10SM CLR 29/24 A2994 RMK A01
KHHV 170840Z AUTO 16005KT 10SM CLR 29/24 A2994 RMK A01
KHHV 170820Z AUTO 13006KT 10SM CLR 29/24 A2993 RMK A01
KHHV 170755Z AUTO 15006KT 10SM CLR 29/24 A2994 RMK A01
KHHV 170735Z AUTO 13006KT 10SM CLR 29/24 A2994 RMK A01
KHHV 170715Z AUTO 13006KT 10SM CLR 29/24 A2994 RMK A01
KHHV 170655Z AUTO 14006KT 10SM CLR 29/24 A2994 RMK A01
KHHV 170640Z AUTO 14005KT 10SM CLR 29/24 A2994 RMK A01
KHHV 170620Z AUTO VRB04KT 10SM CLR 29/24 A2994 RMK A01
KHHV 170600Z AUTO VRB04KT 10SM CLR 29/23 A2994 RMK A01
KHHV 170540Z AUTO VRB04KT 10SM CLR 30/24 A2995 RMK A01
KHHV 170515Z AUTO VRB05KT 10SM CLR 30/24 A2995 RMK A01
KHHV 170455Z AUTO VRB04KT 10SM CLR 31/23 A2996 RMK A01
KHHV 170435Z AUTO 11005KT 10SM CLR 31/24 A2996 RMK A01
KHHV 170420Z AUTO 10006KT 10SM CLR 31/23 A2996 RMK A01
KHHV 170400Z AUTO 09007KT 10SM CLR 32/24 A2996 RMK A01
KHHV 170340Z AUTO 10007KT 10SM CLR 31/24 A2996 RMK A01
KHHV 170315Z AUTO 10007KT 10SM FEW026 31/24 A2996 RMK A01
KHHV 170255Z AUTO 09007KT 10SM SCT026 31/24 A2996 RMK A01
KHHV 170235Z AUTO 07008KT 10SM SCT024 SCT030 31/24 A2995 RMK A01
KHHV 170215Z AUTO 07009KT 10SM SCT024 31/24 A2994 RMK A01
KHHV 170155Z AUTO 07008KT 10SM FEW024 31/24 A2993 RMK A01
KHHV 170140Z AUTO 09008KT 10SM FEW023 32/24 A2992 RMK A01
KHHV 170120Z AUTO 07010KT 10SM CLR 31/24 A2991 RMK A01
KHHV 170100Z AUTO 07008KT 10SM FEW024 30/24 A2991 RMK A01
KHHV 170040Z AUTO 07005KT 10SM SCT024 31/24 A2992 RMK A01
KHHV 170015Z AUTO 06005KT 10SM FEW023 32/24 A2991 RMK A01
KHHV 162355Z AUTO 06006KT 10SM CLR 32/24 A2991 RMK A01
KHHV 162335Z AUTO 06005KT 10SM CLR 32/24 A2991 RMK A01
KHHV 162315Z AUTO 00000KT 10SM CLR 33/24 A2991 RMK A01
KHHV 162300Z AUTO 07003KT 10SM FEW022 33/24 A2991 RMK A01
KHHV 162240Z AUTO 06006KT 10SM FEW022 33/24 A2990 RMK A01
KHHV 162220Z AUTO 06006KT 10SM FEW024 34/24 A2989 RMK A01
KHHV 162200Z AUTO 07005KT 10SM SCT025 34/24 A2990 RMK A01
KHHV 162140Z AUTO 00000KT 10SM SCT026 35/24 A2990 RMK A01
KHHV 162115Z AUTO 00000KT 10SM FEW025 SCT033 36/24 A2991 RMK A01
KHHV 162055Z AUTO 00000KT 10SM BKN024 BKN034 35/24 A2992 RMK A01
KHHV 162035Z AUTO 00000KT 10SM SCT022 33/24 A2992 RMK A01
KHHV 162015Z AUTO 00000KT 10SM CLR 32/24 A2993 RMK A01
KHHV 161955Z AUTO 00000KT 10SM CLR 31/24 A2993 RMK A01
KHHV 161940Z AUTO 00000KT 10SM CLR 31/24 A2994 RMK A01
KHHV 161920Z AUTO 19005KT 10SM FEW020 31/24 A2994 RMK A01
KHHV 161900Z AUTO 19006KT 10SM CLR 31/24 A2995 RMK A01
KHHV 161835Z AUTO 19005KT 10SM CLR 31/24 A2996 RMK A01
KHHV 161815Z AUTO VRB05KT 10SM CLR 31/24 A2997 RMK A01
KHHV 161755Z AUTO 19004KT 10SM FEW019 31/24 A2998 RMK A01
KHHV 161740Z AUTO VRB03KT 10SM CLR 31/24 A2998 RMK A01
KHHV 161720Z AUTO 17004KT 10SM CLR 31/24 A2999 RMK A01
KHHV 161655Z AUTO 17004KT 10SM CLR 31/24 A2999 RMK A01
KHHV 161635Z AUTO 18005KT 10SM CLR 31/24 A2999 RMK A01
KHHV 161620Z AUTO VRB05KT 10SM CLR 30/24 A2999 RMK A01
KHHV 161555Z AUTO 15007KT 10SM CLR 30/24 A2999 RMK A01
KHHV 161535Z AUTO 15006KT 10SM CLR 29/24 A2998 RMK A01
KHHV 161515Z AUTO 14006KT 10SM CLR 29/24 A2998 RMK A01
KHHV 161455Z AUTO 14005KT 10SM CLR 28/24 A2997 RMK A01
KHHV 161440Z AUTO 13005KT 10SM CLR 28/24 A2997 RMK A01
KHHV 161420Z AUTO 13007KT 10SM CLR 28/24 A2996 RMK A01
KHHV 161400Z AUTO VRB06KT 10SM CLR 28/24 A2996 RMK A01
KHHV 161335Z AUTO 13006KT 10SM CLR 28/24 A2996 RMK A01
KHHV 161315Z AUTO 12006KT 10SM CLR 28/24 A2995 RMK A01
KHHV 161255Z AUTO 15006KT 10SM CLR 28/24 A2995 RMK A01
KHHV 161235Z AUTO 14005KT 10SM CLR 28/24 A2994 RMK A01
KHHV 161220Z AUTO 13005KT 10SM CLR 28/24 A2994 RMK A01
KHHV 161200Z AUTO 13006KT 10SM CLR 28/24 A2993 RMK A01
KHHV 161140Z AUTO 13007KT 10SM CLR 28/24 A2992 RMK A01
KHHV 161115Z AUTO 13006KT 10SM CLR 28/24 A2991 RMK A01
KHHV 161055Z AUTO 13006KT 10SM CLR 28/24 A2991 RMK A01
KHHV 161035Z AUTO 13006KT 10SM CLR 28/24 A2991 RMK A01
KHHV 161020Z AUTO 15006KT 10SM CLR 28/23 A2990 RMK A01
KHHV 161000Z AUTO 15006KT 10SM CLR 28/23 A2991 RMK A01
KHHV 160940Z AUTO 15006KT 10SM CLR 28/23 A2990 RMK A01
KHHV 160920Z AUTO 14005KT 10SM CLR 28/23 A2991 RMK A01
KHHV 160900Z AUTO 14005KT 10SM CLR 28/23 A2991 RMK A01
KHHV 160835Z AUTO 13005KT 10SM CLR 28/23 A2991 RMK A01
KHHV 160815Z AUTO VRB04KT 10SM CLR 28/23 A2991 RMK A01
KHHV 160755Z AUTO 11008KT 10SM CLR 29/23 A2992 RMK A01
KHHV 160735Z AUTO 11008KT 10SM CLR 29/23 A2992 RMK A01
KHHV 160720Z AUTO 11007KT 10SM CLR 29/23 A2992 RMK A01
KHHV 160700Z AUTO 11007KT 10SM CLR 28/23 A2993 RMK A01
KHHV 160640Z AUTO 11007KT 10SM CLR 28/23 A2993 RMK A01
KHHV 160615Z AUTO 10007KT 10SM CLR 29/23 A2993 RMK A01
KHHV 160555Z AUTO 10006KT 10SM CLR 29/23 A2994 RMK A01
KHHV 160535Z AUTO 09004KT 10SM CLR 28/23 A2994 RMK A01
KHHV 160520Z AUTO 09005KT 10SM CLR 29/23 A2993 RMK A01
KHHV 160500Z AUTO 08007KT 10SM CLR 29/23 A2994 RMK A01
KHHV 160440Z AUTO 08007KT 10SM CLR 29/23 A2993 RMK A01
KHHV 160420Z AUTO 08008KT 10SM CLR 28/23 A2993 RMK A01
KHHV 160400Z AUTO 08007KT 10SM CLR 28/23 A2993 RMK A01
KHHV 160340Z AUTO 07007KT 10SM CLR 28/23 A2993 RMK A01
KHHV 160320Z AUTO 06006KT 10SM CLR 28/23 A2992 RMK A01
KHHV 160255Z AUTO 06008KT 10SM CLR 28/23 A2992 RMK A01
KHHV 160235Z AUTO 05009KT 10SM CLR 28/23 A2992 RMK A01
KHHV 160215Z AUTO 04007KT 10SM CLR 28/23 A2991 RMK A01
KHHV 160155Z AUTO 05006KT 10SM CLR 27/23 A2991 RMK A01
KHHV 160135Z AUTO 04005KT 10SM CLR 27/23 A2991 RMK A01
KHHV 160115Z AUTO 31003KT 10SM CLR 27/23 A2990 RMK A01
KHHV 160055Z AUTO 30005KT 10SM CLR 27/23 A2990 RMK A01
KHHV 160040Z AUTO 30004KT 10SM CLR 27/23 A2990 RMK A01
KHHV 160020Z AUTO 00000KT 10SM CLR 27/23 A2990 RMK A01
KHHV 160000Z AUTO 27003KT 10SM CLR 26/23 A2989 RMK A01
KHHV 152335Z AUTO VRB06KT 10SM CLR 26/23 A2990 RMK A01
KHHV 152320Z AUTO 23007KT 10SM FEW015 26/23 A2990 RMK A01
KHHV 152300Z AUTO VRB06KT 10SM SCT015 26/23 A2991 RMK A01
KHHV 152240Z AUTO VRB06G12KT 10SM FEW015 26/22 A2991 RMK A01
KHHV 152215Z AUTO 20008KT 10SM CLR 26/23 A2991 RMK A01
KHHV 152155Z AUTO VRB06KT 10SM FEW015 26/22 A2991 RMK A01
KHHV 152140Z AUTO VRB04G10KT 10SM SCT015 26/23 A2991 RMK A01
KHHV 152120Z AUTO VRB05G11KT 10SM FEW015 FEW020 26/23 A2992 RMK A01
KHHV 152100Z AUTO 22007G13KT 170V250 10SM FEW010 BKN016 26/24 A2993 RMK A01
KHHV 152040Z AUTO 23010KT 10SM SCT010 SCT015 26/24 A2993 RMK A01
KHHV 152015Z AUTO VRB05KT 10SM CLR 26/24 A2994 RMK A01
KHHV 151955Z AUTO 24008G15KT 10SM FEW016 SCT023 SCT028 26/24 A2995 RMK A01
KHHV 151935Z AUTO 22009G19KT 180V300 10SM SCT017 BKN026 BKN075 26/24 A2997 RMK A01
KHHV 151920Z AUTO 24011KT 4SM BR FEW038 SCT048 SCT070 25/25 A2997 RMK A01
KHHV 151900Z AUTO 26017G23KT 4SM BR FEW008 FEW017 BKN035 25/24 A2998 RMK A01 P0040
KHHV 151840Z AUTO 26019KT 3/4SM BR BKN005 OVC010 25/24 A2997 RMK A01
KHHV 151820Z AUTO 24025KT 1/4SM HZ BKN005 OVC019 26/23 A2997 RMK A01
KHHV 151800Z AUTO 13008G14KT 10SM FEW021 SCT028 SCT041 30/25 A2996 RMK A01 P0001
KHHV 151740Z AUTO 13016G26KT 090V150 10SM SCT019 SCT024 BKN047 29/23 A2995 RMK A01
KHHV 151720Z AUTO 15013G21KT 130V200 9SM SCT020 SCT024 BKN030 30/24 A2997 RMK A01
KHHV 151700Z AUTO 13011G19KT 10SM FEW018 FEW023 FEW030 32/25 A2996 RMK A01
KHHV 151640Z AUTO 13014G21KT 100V170 10SM FEW020 FEW030 FEW035 31/25 A2996 RMK A01
KHHV 151620Z AUTO 13013G21KT 060V180 10SM SCT021 SCT030 31/25 A2996 RMK A01
KHHV 151600Z AUTO 12011G19KT 010V150 10SM FEW020 31/25 A2996 RMK A01 P0003
KHHV 151540Z AUTO 12012G21KT 4SM HZ SCT021 SCT030 SCT037 29/25 A2994 RMK A01
KHHV 151520Z AUTO 12015G21KT 10SM SCT021 BKN028 BKN034 30/25 A2994 RMK A01
KHHV 151500Z AUTO 12013G21KT 10SM FEW020 SCT027 SCT033 30/25 A2994 RMK A01
KHHV 151440Z AUTO 13012G19KT 110V200 10SM CLR 30/25 A2994 RMK A01
KHHV 151420Z AUTO 12011G19KT 10SM FEW023 FEW030 30/25 A2995 RMK A01
KHHV 151400Z AUTO 12016KT 10SM FEW022 30/25 A2995 RMK A01
KHHV 151340Z AUTO 12013G19KT 10SM FEW024 FEW031 30/25 A2994 RMK A01
KHHV 151320Z AUTO 12013G18KT 10SM SCT025 30/25 A2994 RMK A01
KHHV 151300Z AUTO 13008G18KT 100V170 10SM SCT022 29/25 A2993 RMK A01
KHHV 151235Z AUTO 13008G16KT 100V160 10SM BKN022 29/25 A2992 RMK A01
KHHV 151215Z AUTO 14010G16KT 110V200 10SM BKN023 29/24 A2991 RMK A01
KHHV 151155Z AUTO 13009G17KT 090V160 10SM SCT021 SCT026 29/25 A2991 RMK A01
KHHV 151135Z AUTO 13012G17KT 10SM SCT020 29/25 A2991 RMK A01
KHHV 151115Z AUTO 13010G18KT 120V180 10SM FEW020 29/25 A2990 RMK A01
KHHV 151055Z AUTO 13007G18KT 080V190 10SM CLR 29/25 A2991 RMK A01
KHHV 151035Z AUTO 13011G17KT 10SM CLR 29/24 A2990 RMK A01
KHHV 151015Z AUTO 14010G18KT 10SM CLR 29/24 A2990 RMK A01
KHHV 150955Z AUTO 14012G17KT 10SM CLR 29/24 A2989 RMK A01
KHHV 150935Z AUTO 14014G19KT 10SM CLR 29/24 A2989 RMK A01
KHHV 150915Z AUTO 14013G19KT 10SM CLR 29/24 A2989 RMK A01
KHHV 150855Z AUTO 15017KT 10SM CLR 29/23 A2989 RMK A01
KHHV 150835Z AUTO 15015G22KT 10SM 29/22 A2989 RMK A01
KHHV 150615Z AUTO 17011G23KT 10SM CLR 28/23 A2992 RMK A01
KHHV 150555Z AUTO 15018KT 10SM FEW070 29/23 A2992 RMK A01
KHHV 150535Z AUTO 14016G26KT 10SM FEW060 SCT075 29/23 A2992 RMK A01
KHHV 150515Z AUTO 15019KT 10SM SCT023 SCT035 BKN060 29/22 A2993 RMK A01
KHHV 150455Z AUTO 13012G20KT 10SM SCT023 BKN027 OVC060 29/24 A2993 RMK A01
KHHV 150435Z AUTO 13014G20KT 10SM SCT024 SCT029 SCT055 29/24 A2993 RMK A01
KHHV 150415Z AUTO 13012G17KT 10SM FEW023 FEW060 29/24 A2992 RMK A01
KHHV 150355Z AUTO 13013G20KT 10SM FEW023 FEW029 FEW037 29/24 A2992 RMK A01
KHHV 150335Z AUTO 13013G21KT 10SM FEW022 FEW029 SCT036 29/24 A2991 RMK A01
KHHV 150315Z AUTO 13009G18KT 090V160 10SM SCT047 SCT050 BKN065 29/24 A2991 RMK A01
KHHV 150255Z AUTO 13010G20KT 10SM SCT050 BKN065 29/24 A2992 RMK A01
KHHV 150235Z AUTO 14013KT 10SM SCT050 OVC065 29/23 A2992 RMK A01
KHHV 150215Z AUTO 15013KT 10SM FEW044 BKN050 BKN080 29/23 A2992 RMK A01
KHHV 150155Z AUTO 15014KT 10SM SCT042 SCT048 28/23 A2991 RMK A01
KHHV 150135Z AUTO 15011G18KT 10SM FEW041 28/23 A2990 RMK A01
KHHV 150115Z AUTO 16010G18KT 10SM CLR 28/23 A2990 RMK A01
KHHV 150055Z AUTO 15013G19KT 10SM CLR 28/23 A2989 RMK A01
KHHV 150035Z AUTO 16013G19KT 10SM CLR 28/23 A2988 RMK A01
KHHV 150015Z AUTO 15017KT 10SM CLR 28/23 A2987 RMK A01
KHHV 142355Z AUTO 14012G18KT 10SM CLR 28/23 A2986 RMK A01
KHHV 142335Z AUTO 14014G20KT 10SM CLR 27/23 A2986 RMK A01
KHHV 142315Z AUTO 15015G20KT 10SM CLR 27/23 A2985 RMK A01
KHHV 142255Z AUTO 14012G18KT 10SM CLR 27/24 A2985 RMK A01
KHHV 142235Z AUTO 15014G19KT 10SM CLR 27/24 A2986 RMK A01
KHHV 142215Z AUTO 16013G18KT 10SM CLR 26/24 A2987 RMK A01
KHHV 142155Z AUTO 15015KT 10SM CLR 26/24 A2987 RMK A01
KHHV 142135Z AUTO 17011G20KT 10SM FEW041 FEW050 SCT060 25/25 A2987 RMK A01
KHHV 142115Z AUTO 17013G20KT 130V190 10SM FEW043 BKN050 OVC060 25/24 A2988 RMK A01
KHHV 142055Z AUTO 17015G20KT 8SM FEW039 BKN044 OVC050 24/24 A2989 RMK A01
KHHV 142035Z AUTO 19012G20KT 170V230 7SM FEW013 OVC039 25/25 A2989 RMK A01
KHHV 142015Z AUTO 19016G23KT 1 3/4SM BR BKN007 BKN026 OVC037 25/25 A2990 RMK A01
KHHV 141955Z AUTO 18020G31KT 1/4SM FG OVC005 25/25 A2991 RMK A01
KHHV 141935Z AUTO 20022G30KT M1/4SM FG OVC006 25/24 A2991 RMK A01
KHHV 141915Z AUTO VRB06G19KT 2SM HZ FEW009 SCT017 BKN036 26/23 A2990 RMK A01
KHHV 141855Z AUTO 12010G15KT 060V140 3SM HZ FEW027 SCT035 BKN041 28/23 A2990 RMK A01
KHHV 141835Z AUTO 16008G14KT 10SM FEW055 SCT065 SCT085 29/23 A2990 RMK A01
KHHV 141815Z AUTO 15013KT 10SM FEW050 FEW055 SCT070 28/24 A2991 RMK A01
KHHV 141755Z AUTO 16011G19KT 10SM FEW050 SCT060 BKN075 27/24 A2990 RMK A01
KHHV 141735Z AUTO 15017G24KT 10SM FEW035 FEW060 BKN070 27/23 A2992 RMK A01
KHHV 141715Z AUTO 14015G23KT 10SM SCT034 SCT042 BKN060 26/24 A2992 RMK A01
KHHV 141655Z AUTO 14022G27KT 3SM HZ FEW005 FEW022 SCT035 27/24 A2992 RMK A01
KHHV 141635Z AUTO 16018G28KT 6SM HZ SCT023 SCT030 SCT042 28/24 A2992 RMK A01
KHHV 141615Z AUTO 14012G22KT 110V220 10SM FEW027 FEW042 30/25 A2992 RMK A01
KHHV 141555Z AUTO 12017G23KT 10SM FEW025 FEW033 FEW043 30/24 A2991 RMK A01
KHHV 141535Z AUTO 14015G21KT 10SM FEW025 FEW033 FEW043 30/24 A2992 RMK A01
KHHV 141515Z AUTO 14016G25KT 10SM FEW026 30/24 A2991 RMK A01
KHHV 141455Z AUTO 15018G25KT 10SM CLR 29/24 A2990 RMK A01
KHHV 141435Z AUTO 15022KT 10SM CLR 29/23 A2989 RMK A01
KHHV 141415Z AUTO 14017G25KT 10SM CLR 29/24 A2989 RMK A01
KHHV 141355Z AUTO 14017G25KT 10SM CLR 29/24 A2989 RMK A01
KHHV 141335Z AUTO 15021KT 10SM CLR 29/23 A2989 RMK A01
KHHV 141315Z AUTO 15023KT 10SM FEW026 29/23 A2988 RMK A01
KHHV 141255Z AUTO 15018G25KT 10SM FEW026 29/24 A2987 RMK A01
KHHV 141235Z AUTO 15020G27KT 10SM FEW027 FEW055 29/23 A2987 RMK A01
KHHV 141215Z AUTO 15019G26KT 10SM FEW027 FEW034 SCT055 29/24 A2987 RMK A01
KHHV 141155Z AUTO 15021KT 10SM FEW025 FEW037 29/24 A2986 RMK A01
KHHV 141135Z AUTO 15019G24KT 10SM FEW022 FEW027 28/24 A2986 RMK A01
KHHV 141115Z AUTO 15019G25KT 10SM FEW025 28/24 A2984 RMK A01
KHHV 141055Z AUTO 16015G26KT 10SM FEW026 SCT034 29/24 A2984 RMK A01
KHHV 141035Z AUTO 15021G27KT 10SM SCT026 BKN035 BKN042 28/24 A2984 RMK A01
KHHV 141015Z AUTO 18015G22KT 10SM FEW016 SCT025 BKN032 28/24 A2984 RMK A01
KHHV 140955Z AUTO 15020G27KT 10SM SCT025 SCT036 BKN042 29/24 A2984 RMK A01
KHHV 140935Z AUTO 15021KT 10SM SCT024 SCT031 SCT043 29/24 A2985 RMK A01
KHHV 140915Z AUTO 15018G23KT 10SM SCT025 SCT034 BKN080 28/24 A2985 RMK A01
KHHV 140855Z AUTO 15022KT 10SM FEW025 FEW065 SCT080 29/24 A2985 RMK A01
KHHV 140835Z AUTO 16020G27KT 10SM FEW025 FEW035 SCT065 29/24 A2985 RMK A01
KHHV 140815Z AUTO 16014G27KT SCT024 SCT036 BKN047 29/24 A2985 RMK A01
KHHV 140755Z AUTO 15021G27KT 10SM FEW023 SCT038 SCT047 29/24 A2985 RMK A01
KHHV 140735Z AUTO 15023KT 10SM SCT024 SCT045 BKN075 29/24 A2986 RMK A01
KHHV 140715Z AUTO 15019G26KT 10SM FEW024 SCT049 29/24 A2986 RMK A01
KHHV 140655Z AUTO 15023KT 10SM FEW024 FEW049 29/24 A2986 RMK A01
KHHV 140635Z AUTO 15024G29KT 10SM FEW028 FEW046 SCT065 29/24 A2987 RMK A01
KHHV 140615Z AUTO 15020KT 10SM SCT028 SCT038 BKN055 29/24 A2988 RMK A01
KHHV 140555Z AUTO 15022G27KT 10SM SCT026 BKN041 BKN055 28/24 A2988 RMK A01
KHHV 140535Z AUTO 15020G30KT 8SM BKN023 BKN033 BKN049 29/24 A2988 RMK A01
KHHV 140515Z AUTO 14019G25KT 10SM SCT024 BKN044 OVC070 29/24 A2989 RMK A01
KHHV 140455Z AUTO 13018G24KT 10SM FEW023 BKN050 OVC065 29/25 A2989 RMK A01
KHHV 140435Z AUTO 13016G26KT 10SM FEW025 SCT037 SCT044 29/24 A2989 RMK A01
KHHV 140415Z AUTO 14018G24KT 10SM FEW024 FEW039 29/23 A2988 RMK A01
KHHV 140355Z AUTO 14015G27KT 090V190 10SM FEW024 SCT029 SCT041 29/24 A2988 RMK A01
KHHV 140335Z AUTO 14017G25KT 10SM FEW023 SCT029 BKN039 29/24 A2989 RMK A01
KHHV 140315Z AUTO 13015G24KT 090V190 10SM FEW022 SCT029 BKN039 29/25 A2988 RMK A01
KHHV 140255Z AUTO 12021G26KT 10SM SCT019 BKN023 BKN029 29/25 A2988 RMK A01
KHHV 140235Z AUTO 13013G24KT 090V150 10SM SCT018 SCT031 BKN043 28/25 A2988 RMK A01
KHHV 140215Z AUTO 12021KT 10SM FEW037 BKN044 BKN070 28/24 A2988 RMK A01
KHHV 140155Z AUTO 13013G26KT 090V170 10SM FEW043 FEW050 28/24 A2987 RMK A01
KHHV 140135Z AUTO 12014G23KT 070V150 10SM FEW022 FEW035 SCT050 28/24 A2986 RMK A01
KHHV 140115Z AUTO 12014G20KT 090V180 10SM CLR 28/24 A2986 RMK A01
KHHV 140055Z AUTO 12014KT 110V170 10SM FEW060 FEW070 28/23 A2986 RMK A01
KHHV 140035Z AUTO 14009G20KT 090V200 10SM SCT018 SCT026 SCT036 29/24 A2985 RMK A01
KHHV 140015Z AUTO 10018KT 10SM BKN018 BKN025 BKN043 31/25 A2985 RMK A01
KHHV 132355Z AUTO 09018KT 10SM FEW019 30/24 A2985 RMK A01
KHHV 132335Z AUTO 10016KT 10SM FEW060 31/25 A2985 RMK A01
KHHV 132315Z AUTO 09013KT 10SM BKN060 BKN080 31/25 A2985 RMK A01
KHHV 132255Z AUTO 10012KT 10SM SCT060 BKN070 BKN080 30/25 A2986 RMK A01
KHHV 132235Z AUTO 10010KT 10SM FEW060 OVC075 29/24 A2986 RMK A01
KHHV 132215Z AUTO 11008KT 10SM SCT075 29/24 A2986 RMK A01
KHHV 132155Z AUTO 12006KT 10SM FEW060 28/25 A2986 RMK A01
KHHV 132135Z AUTO VRB06KT 10SM SCT025 SCT040 BKN050 27/25 A2987 RMK A01
KHHV 132115Z AUTO 14009G19KT 5SM HZ FEW017 BKN025 OVC050 28/25 A2987 RMK A01
KHHV 132055Z AUTO 16010G17KT 10SM FEW015 BKN022 BKN030 30/25 A2986 RMK A01
KHHV 132035Z AUTO 11014KT 10SM FEW020 SCT026 BKN049 31/24 A2987 RMK A01
KHHV 132015Z AUTO 12011KT 10SM FEW021 FEW028 SCT033 31/24 A2987 RMK A01
KHHV 131955Z AUTO 12009G17KT 10SM SCT022 SCT026 32/24 A2987 RMK A01
KHHV 131935Z AUTO 13009G19KT 040V160 10SM SCT022 SCT027 SCT034 32/24 A2987 RMK A01
KHHV 131915Z AUTO VRB06G16KT 10SM SCT021 SCT027 BKN055 31/24 A2988 RMK A01
KHHV 131855Z AUTO 13010G18KT 100V170 10SM SCT021 SCT027 BKN035 31/24 A2988 RMK A01
KHHV 131835Z AUTO 13009G17KT 090V150 10SM FEW048 SCT055 BKN080 31/24 A2989 RMK A01
KHHV 131815Z AUTO 14010G16KT 110V170 10SM FEW021 SCT037 BKN049 30/24 A2989 RMK A01
KHHV 131755Z AUTO 13012G17KT 10SM BKN020 BKN024 BKN030 31/24 A2989 RMK A01
KHHV 131735Z AUTO 13012KT 090V150 10SM SCT019 SCT024 BKN042 31/25 A2989 RMK A01
KHHV 131715Z AUTO 13011G17KT 10SM FEW018 FEW040 31/25 A2990 RMK A01
KHHV 131655Z AUTO 12011G18KT 10SM FEW022 FEW034 SCT042 31/25 A2990 RMK A01
KHHV 131635Z AUTO 12012KT 10SM BKN041 BKN049 29/25 A2989 RMK A01
KHHV 131615Z AUTO 11012KT 10SM FEW023 SCT043 BKN049 28/25 A2990 RMK A01
KHHV 131555Z AUTO 12013KT 6SM HZ BKN021 BKN033 BKN042 28/24 A2990 RMK A01
KHHV 131535Z AUTO 11020KT 10SM SCT019 SCT042 30/24 A2989 RMK A01
KHHV 131515Z AUTO 12013KT 10SM FEW017 SCT022 SCT042 30/24 A2990 RMK A01
KHHV 131455Z AUTO 11012KT 10SM FEW017 FEW075 FEW090 30/25 A2989 RMK A01
KHHV 131435Z AUTO 10014KT 10SM FEW017 SCT075 SCT090 30/25 A2988 RMK A01
KHHV 131415Z AUTO 11013KT 10SM CLR 30/25 A2987 RMK A01
KHHV 131355Z AUTO 10011KT 10SM CLR 29/24 A2987 RMK A01
KHHV 131335Z AUTO 11014KT 10SM CLR 29/24 A2987 RMK A01
KHHV 131315Z AUTO 10014KT 10SM FEW016 29/24 A2987 RMK A01
KHHV 131255Z AUTO 10013KT 10SM CLR 29/24 A2986 RMK A01
KHHV 131235Z AUTO 11013KT 10SM BKN049 29/23 A2986 RMK A01
KHHV 131215Z AUTO 11012KT 10SM BKN048 OVC055 29/23 A2986 RMK A01
KHHV 131155Z AUTO 11011KT 10SM SCT049 SCT055 29/24 A2986 RMK A01
KHHV 131135Z AUTO 12011KT 10SM FEW022 29/24 A2985 RMK A01
KHHV 131115Z AUTO 11012KT 10SM SCT020 SCT032 29/24 A2984 RMK A01
KHHV 131055Z AUTO 11010KT 10SM FEW018 SCT033 30/24 A2985 RMK A01
KHHV 131035Z AUTO 09013KT 10SM CLR 31/24 A2984 RMK A01
KHHV 131015Z AUTO 09014KT 10SM FEW023 FEW029 FEW060 31/24 A2984 RMK A01
KHHV 130955Z AUTO 09015KT 10SM FEW022 SCT060 30/24 A2984 RMK A01
KHHV 130935Z AUTO 10015KT 10SM FEW070 31/24 A2985 RMK A01
KHHV 130915Z AUTO 10014KT 10SM FEW023 FEW029 BKN065 31/24 A2985 RMK A01
KHHV 130855Z AUTO 10014KT 10SM SCT023 SCT029 31/24 A2986 RMK A01
KHHV 130835Z AUTO 09014KT 10SM FEW023 31/24 A2985 RMK A01
KHHV 130815Z AUTO 10013KT 10SM CLR 30/24 A2985 RMK A01
KHHV 130755Z AUTO 10014KT 10SM CLR 30/24 A2986 RMK A01
KHHV 130735Z AUTO 10017KT 10SM FEW021 30/24 A2986 RMK A01
KHHV 130715Z AUTO 10017KT 10SM FEW021 31/24 A2986 RMK A01
KHHV 130655Z AUTO 10018KT 10SM CLR 30/24 A2987 RMK A01
KHHV 130635Z AUTO 09019KT 10SM FEW023 FEW028 SCT036 30/23 A2988 RMK A01
KHHV 130615Z AUTO 10020KT 10SM BKN022 BKN028 OVC037 29/24 A2988 RMK A01
KHHV 130555Z AUTO 10019KT 9SM BKN020 BKN029 OVC050 29/25 A2989 RMK A01
KHHV 130535Z AUTO 11015KT 10SM FEW034 FEW043 OVC050 29/25 A2988 RMK A01
KHHV 130515Z AUTO 10016KT 10SM FEW021 FEW033 BKN048 29/25 A2989 RMK A01
KHHV 130455Z AUTO 10014KT 10SM FEW021 30/24 A2989 RMK A01
KHHV 130435Z AUTO 10016KT 10SM FEW021 FEW032 FEW038 30/24 A2989 RMK A01
KHHV 130415Z AUTO 10015KT 10SM FEW021 FEW032 31/24 A2989 RMK A01
KHHV 130355Z AUTO 09014KT 10SM FEW020 FEW028 FEW034 30/24 A2989 RMK A01
KHHV 130335Z AUTO 10017KT 10SM FEW028 FEW034 30/24 A2989 RMK A01
KHHV 130315Z AUTO 10019KT 10SM SCT022 SCT030 SCT039 29/24 A2989 RMK A01
KHHV 130255Z AUTO 10018KT 10SM SCT022 30/24 A2989 RMK A01
KHHV 130235Z AUTO 09019KT 10SM FEW022 30/24 A2989 RMK A01
KHHV 130215Z AUTO 10019KT 10SM FEW029 29/24 A2988 RMK A01
KHHV 130155Z AUTO 11020KT 10SM FEW026 SCT031 BKN040 28/23 A2988 RMK A01
KHHV 130135Z AUTO 11022KT 9SM FEW022 SCT039 BKN049 27/24 A2988 RMK A01
KHHV 130115Z AUTO 11018KT 3SM HZ SCT024 BKN035 BKN065 28/25 A2988 RMK A01
KHHV 130055Z AUTO 09018KT 10SM FEW021 SCT027 30/25 A2987 RMK A01
KHHV 130035Z AUTO 09018KT 10SM SCT021 SCT050 SCT060 31/25 A2987 RMK A01
KHHV 130015Z AUTO 09019KT 10SM CLR 31/25 A2988 RMK A01
KHHV 122355Z AUTO 10017KT 10SM FEW016 SCT028 BKN065 29/25 A2988 RMK A01
KHHV 122335Z AUTO 10022KT 10SM SCT016 BKN024 BKN035 31/25 A2988 RMK A01
KHHV 122315Z AUTO 09018KT 10SM FEW018 SCT022 BKN032 31/25 A2988 RMK A01
KHHV 122255Z AUTO 06012KT 10SM FEW022 SCT030 BKN042 30/25 A2989 RMK A01
KHHV 122235Z AUTO 04010KT 10SM CLR 29/25 A2988 RMK A01
KHHV 122215Z AUTO 06010G19KT 3SM HZ FEW017 SCT023 SCT036 30/24 A2988 RMK A01
KHHV 122155Z AUTO 05017KT 10SM SCT016 SCT023 BKN055 32/25 A2989 RMK A01
KHHV 122135Z AUTO 05009KT 10SM CLR 32/24 A2988 RMK A01
KHHV 122115Z AUTO 06011KT 10SM CLR 32/24 A2988 RMK A01
KHHV 122055Z AUTO 06009G14KT 10SM FEW018 FEW055 32/25 A2989 RMK A01
KHHV 122035Z AUTO 06013KT 10SM FEW019 32/24 A2990 RMK A01
KHHV 122015Z AUTO 06010KT 10SM CLR 32/24 A2990 RMK A01
KHHV 121955Z AUTO 06013KT 10SM FEW015 BKN020 BKN038 32/24 A2990 RMK A01
KHHV 121935Z AUTO 07014KT 10SM SCT020 SCT040 BKN047 33/25 A2991 RMK A01
KHHV 121915Z AUTO 07007KT 10SM SCT040 BKN047 33/24 A2992 RMK A01
KHHV 121855Z AUTO 08007KT 10SM CLR 34/25 A2992 RMK A01
KHHV 121835Z AUTO 07005KT 10SM FEW050 33/25 A2993 RMK A01
KHHV 121815Z AUTO 08005KT 10SM FEW029 34/25 A2994 RMK A01
KHHV 121755Z AUTO 09003KT 4SM HZ CLR 34/25 A2994 RMK A01
KHHV 121735Z AUTO 09006KT 10SM FEW022 33/24 A2994 RMK A01
KHHV 121715Z AUTO 00000KT 10SM CLR 31/24 A2994 RMK A01
KHHV 121655Z AUTO 00000KT 10SM CLR 31/24 A2994 RMK A01
KHHV 121635Z AUTO 00000KT 10SM CLR 31/24 A2995 RMK A01
KHHV 121615Z AUTO 00000KT 10SM CLR 30/23 A2995 RMK A01
KHHV 121555Z AUTO 06005G14KT 2SM HZ FEW024 28/23 A2995 RMK A01
KHHV 121535Z AUTO 12009KT 100V180 9SM SCT022 SCT027 30/23 A2995 RMK A01
KHHV 121515Z AUTO 09006KT 10SM FEW023 FEW028 32/24 A2994 RMK A01
KHHV 121455Z AUTO 08008KT 10SM CLR 31/24 A2993 RMK A01
KHHV 121435Z AUTO 13006KT 10SM CLR 30/24 A2993 RMK A01
KHHV 121415Z AUTO 13005KT 10SM FEW023 FEW033 30/24 A2993 RMK A01
KHHV 121355Z AUTO 12006KT 10SM FEW024 FEW033 30/24 A2993 RMK A01
KHHV 121335Z AUTO 12009KT 090V160 10SM CLR 30/24 A2993 RMK A01
KHHV 121315Z AUTO 13008KT 10SM CLR 29/24 A2991 RMK A01
KHHV 121255Z AUTO 12010KT 10SM CLR 29/24 A2991 RMK A01
KHHV 121235Z AUTO 12010KT 100V160 10SM CLR 29/25 A2990 RMK A01
KHHV 121215Z AUTO VRB06G13KT 10SM CLR 29/24 A2989 RMK A01
KHHV 121155Z AUTO 13007G13KT 10SM CLR 29/24 A2989 RMK A01
KHHV 121135Z AUTO 13010KT 10SM CLR 29/24 A2989 RMK A01
KHHV 121115Z AUTO 12007G13KT 080V160 10SM CLR 29/24 A2988 RMK A01
KHHV 121055Z AUTO 12010G15KT 090V150 10SM FEW024 FEW043 29/24 A2987 RMK A01
KHHV 121035Z AUTO 12008G16KT 080V160 10SM FEW080 FEW120 29/24 A2988 RMK A01
KHHV 121015Z AUTO 13010G15KT 100V170 10SM FEW022 FEW048 BKN120 29/24 A2988 RMK A01
KHHV 120955Z AUTO 13010KT 100V160 10SM SCT120 29/24 A2989 RMK A01
KHHV 120935Z AUTO 12011KT 10SM CLR 29/24 A2989 RMK A01
KHHV 120915Z AUTO 12008G15KT 10SM FEW023 FEW027 29/24 A2989 RMK A01
KHHV 120855Z AUTO 12011KT 100V170 10SM FEW022 FEW027 FEW039 29/24 A2989 RMK A01
KHHV 120835Z AUTO 13010KT 090V150 10SM SCT022 SCT028 BKN039 28/24 A2989 RMK A01
KHHV 120815Z AUTO 13010G17KT 080V170 10SM FEW021 29/24 A2990 RMK A01
KHHV 120755Z AUTO 12015KT 10SM FEW019 29/24 A2991 RMK A01
KHHV 120735Z AUTO 12013G19KT 10SM SCT021 SCT028 29/24 A2991 RMK A01
KHHV 120715Z AUTO 13011G19KT 10SM FEW021 29/24 A2992 RMK A01
KHHV 120655Z AUTO 11013G18KT 10SM CLR 29/24 A2992 RMK A01
KHHV 120635Z AUTO 12016KT 10SM CLR 29/24 A2992 RMK A01
KHHV 120615Z AUTO 12017KT 10SM FEW020 29/24 A2993 RMK A01
KHHV 120555Z AUTO 11019KT 10SM FEW020 29/24 A2993 RMK A01
KHHV 120535Z AUTO 11017KT 10SM FEW020 29/24 A2993 RMK A01
KHHV 120515Z AUTO 11019KT 10SM CLR 29/24 A2994 RMK A01
KHHV 120455Z AUTO 11020KT 10SM FEW019 FEW024 29/24 A2994 RMK A01
KHHV 120435Z AUTO 11022KT 10SM SCT019 SCT024 29/24 A2993 RMK A01
KHHV 120415Z AUTO 11022KT 10SM SCT018 BKN025 29/24 A2993 RMK A01
KHHV 120355Z AUTO 11021KT 10SM FEW020 FEW026 29/24 A2992 RMK A01
KHHV 120335Z AUTO 10021KT 10SM CLR 30/24 A2993 RMK A01
KHHV 120315Z AUTO 10019KT 10SM CLR 30/24 A2992 RMK A01
KHHV 120255Z AUTO 10022KT 10SM CLR 29/24 A2992 RMK A01
KHHV 120235Z AUTO 09021KT 10SM CLR 30/24 A2991 RMK A01
KHHV 120215Z AUTO 09022KT 10SM FEW015 FEW028 30/24 A2991 RMK A01
KHHV 120155Z AUTO 10020KT 10SM CLR 30/24 A2991 RMK A01
KHHV 120135Z AUTO 10019KT 10SM FEW015 30/24 A2990 RMK A01
KHHV 120115Z AUTO 10020KT 10SM FEW015 SCT070 30/24 A2990 RMK A01
KHHV 120055Z AUTO 09018KT 10SM FEW015 FEW070 30/24 A2990 RMK A01
KHHV 120035Z AUTO 09016KT 10SM SCT015 30/24 A2990 RMK A01
KHHV 120015Z AUTO 09017KT 10SM BKN016 31/24 A2990 RMK A01
KHHV 112355Z AUTO 09017KT 10SM FEW015 31/24 A2990 RMK A01
KHHV 112335Z AUTO 09020KT 10SM SCT017 32/24 A2990 RMK A01
KHHV 112315Z AUTO 09019KT 10SM SCT018 32/24 A2990 RMK A01
KHHV 112255Z AUTO 08015KT 10SM SCT020 SCT048 30/24 A2991 RMK A01
KHHV 112235Z AUTO 07014KT 10SM FEW017 FEW048 30/24 A2991 RMK A01
KHHV 112215Z AUTO 07015KT 10SM FEW016 29/24 A2991 RMK A01
KHHV 112155Z AUTO 06014KT 10SM SCT015 30/24 A2991 RMK A01
KHHV 112135Z AUTO 05013KT 10SM FEW019 FEW030 30/24 A2991 RMK A01
KHHV 112115Z AUTO 05011KT 10SM FEW020 FEW030 30/24 A2991 RMK A01
KHHV 112055Z AUTO 04008KT 10SM CLR 29/23 A2992 RMK A01
KHHV 112035Z AUTO 05008KT 10SM CLR 30/23 A2992 RMK A01
KHHV 112015Z AUTO 04009KT 10SM FEW040 FEW070 29/23 A2992 RMK A01
KHHV 111955Z AUTO 04008KT 10SM BKN041 BKN050 28/23 A2994 RMK A01
KHHV 111935Z AUTO 02004KT 10SM SCT043 SCT049 28/23 A2994 RMK A01
KHHV 111915Z AUTO 32005KT 10SM FEW085 29/23 A2994 RMK A01
KHHV 111855Z AUTO 30006KT FEW085 28/23 A2994 RMK A01
KHHV 111835Z AUTO 26006KT 10SM FEW045 FEW060 28/22 A2995 RMK A01
KHHV 111815Z AUTO 28007KT 10SM FEW018 SCT027 BKN044 27/21 A2995 RMK A01
KHHV 111755Z AUTO VRB06KT 10SM BKN028 BKN041 BKN050 28/24 A2996 RMK A01
KHHV 111735Z AUTO 27006KT 10SM CLR 28/24 A2996 RMK A01
KHHV 111715Z AUTO 27007KT 10SM CLR 28/24 A2996 RMK A01
KHHV 111655Z AUTO 26008KT 10SM CLR 28/23 A2996 RMK A01
KHHV 111635Z AUTO 25010KT 10SM CLR 28/23 A2996 RMK A01
KHHV 111615Z AUTO 26010KT 10SM CLR 27/22 A2997 RMK A01
KHHV 111555Z AUTO 27007KT 10SM CLR 26/24 A2997 RMK A01
KHHV 111535Z AUTO 27007G13KT 4SM HZ FEW005 SCT026 BKN032 25/23 A2995 RMK A01
KHHV 111515Z AUTO 23019G25KT 10SM FEW025 SCT034 SCT065 27/22 A2995 RMK A01
KHHV 111455Z AUTO 23011KT 10SM FEW030 FEW046 SCT060 26/22 A2994 RMK A01
KHHV 111435Z AUTO 22012G25KT 3SM HZ SCT031 SCT044 BKN050 26/23 A2993 RMK A01
KHHV 111415Z AUTO 14018G34KT 10SM FEW023 SCT030 SCT035 27/22 A2991 RMK A01
KHHV 111355Z AUTO 17008KT 10SM CLR 29/24 A2992 RMK A01
KHHV 111335Z AUTO 17008KT 10SM FEW025 29/24 A2992 RMK A01
KHHV 111315Z AUTO 18012G17KT 10SM FEW026 29/24 A2992 RMK A01
KHHV 111255Z AUTO 16009G14KT 130V190 10SM FEW026 29/24 A2990 RMK A01
KHHV 111235Z AUTO 15011KT 10SM FEW025 29/24 A2990 RMK A01
KHHV 111215Z AUTO 13013G19KT 10SM SCT024 BKN033 28/23 A2989 RMK A01
KHHV 111155Z AUTO 17011G17KT 10SM SCT024 SCT036 29/24 A2989 RMK A01
KHHV 111135Z AUTO 16013KT 10SM CLR 29/24 A2988 RMK A01
KHHV 111115Z AUTO 16009G17KT 10SM CLR 29/24 A2987 RMK A01
KHHV 111055Z AUTO 16009G17KT 140V200 10SM CLR 29/24 A2987 RMK A01
KHHV 111035Z AUTO 16013KT 10SM CLR 29/23 A2986 RMK A01
KHHV 111015Z AUTO 16010G18KT 10SM CLR 28/24 A2986 RMK A01
KHHV 110955Z AUTO 15017KT 10SM FEW019 FEW030 SCT050 28/24 A2986 RMK A01
KHHV 110935Z AUTO 14013KT 10SM FEW020 FEW030 SCT065 29/25 A2986 RMK A01
KHHV 110915Z AUTO 13011G18KT 040V160 10SM CLR 29/24 A2987 RMK A01
KHHV 110855Z AUTO 14011G17KT 10SM CLR 29/24 A2988 RMK A01
KHHV 110835Z AUTO 13012G20KT 10SM CLR 28/23 A2988 RMK A01
KHHV 110815Z AUTO 13008G17KT 100V170 10SM CLR 28/23 A2987 RMK A01
KHHV 110755Z AUTO 13014KT 10SM FEW027 FEW033 28/24 A2987 RMK A01
KHHV 110735Z AUTO 14012KT 10SM CLR 28/23 A2988 RMK A01
KHHV 110715Z AUTO 14012KT 10SM FEW070 FEW085 SCT110 28/24 A2989 RMK A01
KHHV 110655Z AUTO 12012G19KT 100V160 10SM FEW026 SCT044 BKN080 27/22 A2990 RMK A01
KHHV 110635Z AUTO VRB11G24KT 10SM FEW021 SCT029 BKN043 27/23 A2989 RMK A01
KHHV 110615Z AUTO 13010G17KT 10SM SCT022 SCT028 BKN037 29/24 A2990 RMK A01
KHHV 110555Z AUTO 13010G18KT 090V220 10SM FEW022 SCT029 SCT037 29/24 A2991 RMK A01
KHHV 110535Z AUTO 12012KT 10SM CLR 29/24 A2991 RMK A01
KHHV 110515Z AUTO 12013KT 10SM CLR 29/24 A2991 RMK A01
KHHV 110455Z AUTO 12010G17KT 10SM CLR 29/24 A2992 RMK A01
KHHV 110435Z AUTO 12009G18KT 090V150 10SM CLR 29/24 A2992 RMK A01
KHHV 110415Z AUTO 12013KT 090V150 10SM FEW020 FEW034 FEW043 29/24 A2992 RMK A01
KHHV 110355Z AUTO 12016KT 10SM SCT020 SCT028 BKN042 29/24 A2992 RMK A01
KHHV 110335Z AUTO 12014KT 10SM FEW033 FEW070 29/24 A2992 RMK A01
KHHV 110315Z AUTO 11016KT 10SM FEW018 FEW028 SCT033 29/24 A2992 RMK A01
KHHV 110255Z AUTO 11015KT 10SM FEW019 FEW026 SCT041 29/24 A2991 RMK A01
KHHV 110235Z AUTO 11014KT 10SM SCT020 SCT033 BKN041 29/24 A2990 RMK A01
KHHV 110215Z AUTO 11015KT 10SM BKN020 BKN026 BKN032 29/24 A2990 RMK A01
KHHV 110155Z AUTO 11014KT 10SM BKN020 BKN026 29/24 A2989 RMK A01
KHHV 110135Z AUTO 10014KT 10SM SCT019 SCT025 29/24 A2988 RMK A01
KHHV 110115Z AUTO 10013KT 10SM FEW019 29/24 A2988 RMK A01
KHHV 110055Z AUTO 10016G21KT 10SM CLR 29/24 A2987 RMK A01
KHHV 110035Z AUTO 10016KT 10SM CLR 29/24 A2985 RMK A01
KHHV 110015Z AUTO 09017KT 10SM CLR 30/24 A2984 RMK A01
KHHV 102355Z AUTO 09017KT 10SM CLR 31/24 A2984 RMK A01
KHHV 102335Z AUTO 08015KT 10SM CLR 30/23 A2984 RMK A01
KHHV 102315Z AUTO 07013KT 10SM CLR 29/24 A2984 RMK A01
KHHV 102255Z AUTO 07012KT 10SM CLR 29/24 A2985 RMK A01
KHHV 102235Z AUTO 06011KT 10SM CLR 29/24 A2986 RMK A01
KHHV 102215Z AUTO 05009KT 10SM CLR 29/23 A2986 RMK A01
KHHV 102155Z AUTO 03008KT 10SM CLR 28/23 A2985 RMK A01
KHHV 102135Z AUTO 00000KT 10SM CLR 28/23 A2986 RMK A01
KHHV 102115Z AUTO 33005KT 10SM CLR 28/24 A2986 RMK A01
KHHV 102055Z AUTO 30007KT 10SM CLR 28/24 A2987 RMK A01
KHHV 102035Z AUTO 29009KT 10SM FEW016 FEW022 27/24 A2987 RMK A01
KHHV 102015Z AUTO 26010KT 10SM SCT015 SCT022 BKN050 27/24 A2989 RMK A01
KHHV 101955Z AUTO 26007KT 10SM FEW016 BKN050 BKN060 28/24 A2990 RMK A01
KHHV 101935Z AUTO 25009KT 10SM FEW015 FEW050 27/24 A2990 RMK A01
KHHV 101915Z AUTO 23008G14KT 170V240 10SM FEW016 FEW060 FEW080 27/25 A2991 RMK A01
KHHV 101855Z AUTO VRB04G10KT 10SM FEW060 SCT070 27/25 A2991 RMK A01
KHHV 101835Z AUTO 19004KT 10SM FEW022 SCT048 BKN075 26/23 A2992 RMK A01
KHHV 101815Z AUTO 24015G26KT 2SM HZ BKN023 BKN045 OVC075 26/23 A2992 RMK A01
KHHV 101755Z AUTO 19008G14KT 10SM BKN023 BKN036 BKN080 28/23 A2991 RMK A01
KHHV 101735Z AUTO 19007KT 10SM FEW037 FEW048 27/23 A2992 RMK A01
KHHV 101715Z AUTO 8/16666708KT 10SM CLR 26/24 A2991 RMK A01
KHHV 101655Z AUTO 18009KT 10SM CLR 27/23 A2991 RMK A01
KHHV 101635Z AUTO VRB06KT 10SM FEW050 FEW065 FEW090 27/24 A2992 RMK A01
KHHV 101615Z AUTO VRB05G14KT 7SM FEW035 SCT041 BKN065 27/23 A2992 RMK A01
KHHV 101555Z AUTO 20014G23KT 10SM SCT035 SCT041 SCT048 29/22 A2992 RMK A01
KHHV 101535Z AUTO VRB06KT 10SM CLR 28/22 A2991 RMK A01
KHHV 101515Z AUTO 00000G12KT 10SM CLR 27/23 A2990 RMK A01
KHHV 101455Z AUTO 23007G17KT 210V270 10SM CLR 27/23 A2990 RMK A01
KHHV 101435Z AUTO 22010G18KT 10SM FEW027 FEW039 FEW080 27/23 A2989 RMK A01
KHHV 101415Z AUTO 24014KT 10SM FEW025 FEW032 SCT055 26/23 A2990 RMK A01
KHHV 101355Z AUTO 24013KT 10SM SCT032 SCT050 BKN075 26/23 A2989 RMK A01
KHHV 101335Z AUTO 23025G34KT 2SM HZ SCT023 BKN031 BKN039 25/22 A2989 RMK A01
KHHV 101315Z AUTO 18008G13KT 10SM FEW048 FEW075 29/24 A2987 RMK A01
KHHV 101255Z AUTO 19011G17KT 10SM CLR 29/24 A2987 RMK A01
KHHV 101235Z AUTO 18012KT 10SM CLR 29/23 A2986 RMK A01
KHHV 101215Z AUTO 18012KT 10SM CLR 29/24 A2986 RMK A01
KHHV 101155Z AUTO 18016KT 10SM FEW120 28/24 A2984 RMK A01
KHHV 101135Z AUTO 17011G17KT 10SM FEW030 SCT075 BKN120 28/24 A2983 RMK A01
KHHV 101115Z AUTO 13012G23KT 110V170 10SM SCT023 BKN033 OVC075 28/23 A2984 RMK A01
KHHV 101055Z AUTO 16011G19KT 10SM SCT025 BKN032 BKN040 29/24 A2983 RMK A01
KHHV 101035Z AUTO 15012G18KT 10SM FEW026 FEW034 FEW120 29/24 A2983 RMK A01
KHHV 101015Z AUTO 15014KT 10SM FEW030 FEW037 FEW110 29/24 A2983 RMK A01
KHHV 100955Z AUTO 15013G21KT 10SM FEW030 SCT037 SCT055 29/22 A2983 RMK A01
KHHV 100935Z AUTO 16008G18KT 10SM FEW026 FEW034 SCT055 29/24 A2983 RMK A01
KHHV 100915Z AUTO 13010G17KT 10SM FEW026 SCT049 BKN055 29/23 A2983 RMK A01
KHHV 100855Z AUTO 14009G16KT 100V190 10SM FEW026 FEW032 SCT048 29/23 A2984 RMK A01
KHHV 100835Z AUTO 13011G18KT 10SM FEW023 FEW048 29/24 A2984 RMK A01
KHHV 100815Z AUTO 13012KT 10SM SCT023 SCT120 29/23 A2984 RMK A01
KHHV 100755Z AUTO 13010KT 10SM SCT023 BKN120 29/24 A2985 RMK A01
KHHV 100735Z AUTO 13009G15KT 080V150 10SM FEW022 FEW033 FEW120 29/24 A2985 RMK A01
KHHV 100715Z AUTO 13009G16KT 090V150 10SM FEW022 SCT026 SCT033 29/24 A2985 RMK A01
KHHV 100655Z AUTO 13010KT 10SM SCT024 SCT030 29/24 A2986 RMK A01
KHHV 100635Z AUTO 14009G15KT 100V170 10SM FEW024 SCT030 29/24 A2987 RMK A01
KHHV 100615Z AUTO 13010KT 10SM SCT022 29/24 A2988 RMK A01
KHHV 100555Z AUTO 13007KT 090V160 10SM FEW022 29/24 A2988 RMK A01
KHHV 100535Z AUTO 14008KT 10SM FEW022 29/24 A2988 RMK A01
KHHV 100515Z AUTO VRB04G13KT 10SM FEW022 29/24 A2989 RMK A01
KHHV 100455Z AUTO 14007KT 10SM CLR 29/24 A2989 RMK A01
KHHV 100435Z AUTO 13008KT 110V180 10SM SCT022 SCT027 SCT033 29/24 A2989 RMK A01
KHHV 100415Z AUTO 14007KT 10SM FEW022 SCT028 29/24 A2989 RMK A01
KHHV 100355Z AUTO 13007KT 10SM CLR 29/24 A2989 RMK A01
KHHV 100335Z AUTO 14006KT 10SM CLR 29/23 A2989 RMK A01
KHHV 100315Z AUTO 14005KT 10SM CLR 29/23 A2988 RMK A01
KHHV 100255Z AUTO 13006KT CLR 29/23 A2987 RMK A01
KHHV 100235Z AUTO VRB05KT 10SM CLR 29/24 A2986 RMK A01
KHHV 100215Z AUTO VRB06KT 10SM CLR 29/24 A2985 RMK A01
KHHV 100155Z AUTO 14006KT 10SM CLR 29/23 A2985 RMK A01
KHHV 100135Z AUTO VRB05KT 10SM CLR 29/24 A2984 RMK A01
KHHV 100115Z AUTO VRB06KT 10SM CLR 29/24 A2983 RMK A01
KHHV 100055Z AUTO 18007KT 10SM CLR 29/24 A2983 RMK A01
KHHV 100035Z AUTO 18007KT 10SM CLR 29/24 A2982 RMK A01
KHHV 100015Z AUTO 16006G11KT 10SM FEW018 SCT024 BKN036 29/24 A2982 RMK A01
KHHV 092355Z AUTO 16005KT 10SM SCT021 BKN033 BKN043 30/25 A2982 RMK A01
KHHV 092335Z AUTO 19004KT 10SM FEW026 30/24 A2981 RMK A01
KHHV 092315Z AUTO 17005KT 10SM SCT026 30/23 A2982 RMK A01
KHHV 092255Z AUTO 16004KT 10SM CLR 30/23 A2981 RMK A01
KHHV 092235Z AUTO 17006KT 10SM CLR 31/23 A2982 RMK A01
KHHV 092215Z AUTO VRB03KT 10SM CLR 30/23 A2981 RMK A01
KHHV 092155Z AUTO VRB04KT 10SM CLR 30/24 A2981 RMK A01
KHHV 092135Z AUTO 17005KT 10SM CLR 31/24 A2981 RMK A01
KHHV 092115Z AUTO 17006KT 10SM CLR 31/24 A2982 RMK A01
KHHV 092055Z AUTO VRB05KT 10SM FEW026 31/24 A2983 RMK A01
KHHV 092035Z AUTO 19005KT 10SM CLR 30/23 A2984 RMK A01
KHHV 092015Z AUTO 19004KT 10SM CLR 30/24 A2984 RMK A01
KHHV 091955Z AUTO 18005KT 10SM FEW025 31/24 A2984 RMK A01
KHHV 091935Z AUTO 19007KT 10SM SCT025 31/24 A2985 RMK A01
KHHV 091915Z AUTO VRB05KT 10SM SCT023 SCT045 31/24 A2986 RMK A01
KHHV 091855Z AUTO 19006KT 10SM SCT024 SCT045 30/24 A2987 RMK A01
KHHV 091835Z AUTO VRB06KT 10SM FEW026 FEW036 FEW044 30/23 A2988 RMK A01
KHHV 091815Z AUTO VRB06KT 10SM FEW025 SCT031 SCT037 30/23 A2988 RMK A01
KHHV 091755Z AUTO VRB06KT 10SM SCT025 30/24 A2988 RMK A01
KHHV 091735Z AUTO 19007KT 10SM CLR 30/24 A2989 RMK A01
KHHV 091715Z AUTO 19007KT 170V230 10SM FEW025 30/24 A2989 RMK A01
KHHV 091655Z AUTO 20007KT 180V240 10SM SCT024 31/24 A2989 RMK A01
KHHV 091635Z AUTO 18007KT 140V210 10SM FEW024 31/24 A2989 RMK A01
KHHV 091615Z AUTO 18009KT 10SM CLR 30/24 A2989 RMK A01
KHHV 091555Z AUTO 19008KT 10SM CLR 30/23 A2989 RMK A01
KHHV 091535Z AUTO 19007KT 10SM CLR 30/23 A2989 RMK A01
KHHV 091515Z AUTO 19009KT 10SM CLR 30/23 A2989 RMK A01
KHHV 091455Z AUTO 19008KT 170V230 10SM FEW024 29/23 A2989 RMK A01
KHHV 091435Z AUTO 18011KT 10SM FEW024 29/24 A2988 RMK A01
KHHV 091415Z AUTO 18010KT 10SM CLR 29/23 A2988 RMK A01
KHHV 091355Z AUTO 16008KT 10SM CLR 29/24 A2987 RMK A01
KHHV 091335Z AUTO 16007G14KT 10SM CLR 29/24 A2986 RMK A01
KHHV 091315Z AUTO 16006G12KT 10SM CLR 29/24 A2986 RMK A01
KHHV 091255Z AUTO 17011KT 10SM CLR 29/24 A2986 RMK A01
KHHV 091235Z AUTO 19008KT 10SM FEW027 29/23 A2986 RMK A01
KHHV 091215Z AUTO 19009KT 10SM FEW024 FEW030 SCT070 29/23 A2985 RMK A01
KHHV 091155Z AUTO 18012KT 10SM FEW023 SCT030 BKN080 29/23 A2985 RMK A01
KHHV 091135Z AUTO 16006G12KT 10SM SCT023 SCT028 BKN041 29/23 A2985 RMK A01
KHHV 091115Z AUTO 17008KT 10SM SCT025 29/24 A2984 RMK A01
KHHV 091055Z AUTO VRB06G12KT 10SM FEW024 29/24 A2984 RMK A01
KHHV 091035Z AUTO 17009G15KT 10SM SCT024 SCT032 29/23 A2984 RMK A01
KHHV 091015Z AUTO 17011KT 10SM FEW023 29/23 A2984 RMK A01
KHHV 090955Z AUTO 15012KT 10SM FEW024 29/23 A2984 RMK A01
KHHV 090935Z AUTO 15011KT CLR 29/23 A2984 RMK A01
KHHV 090915Z AUTO 15012KT 10SM CLR 29/23 A2984 RMK A01
KHHV 090855Z AUTO 14011KT 10SM CLR 29/23 A2984 RMK A01
KHHV 090835Z AUTO 13009G14KT 10SM FEW023 FEW032 FEW045 29/24 A2985 RMK A01
KHHV 090815Z AUTO 13011KT 10SM CLR 29/23 A2986 RMK A01
KHHV 090755Z AUTO 14010KT 10SM SCT025 29/23 A2986 RMK A01
KHHV 090735Z AUTO 14010G16KT 10SM SCT025 29/24 A2986 RMK A01
KHHV 090715Z AUTO 14009KT 10SM FEW022 29/24 A2987 RMK A01
KHHV 090655Z AUTO 14011KT 10SM FEW023 29/23 A2987 RMK A01
KHHV 090635Z AUTO 14009KT 10SM FEW022 29/24 A2988 RMK A01
KHHV 090615Z AUTO 14008KT 10SM CLR 29/23 A2988 RMK A01
KHHV 090555Z AUTO 13009KT 10SM CLR 29/24 A2988 RMK A01
KHHV 090535Z AUTO 13008KT 10SM CLR 29/23 A2988 RMK A01
KHHV 090515Z AUTO 13007KT 10SM FEW022 29/23 A2989 RMK A01
KHHV 090455Z AUTO 13007KT 10SM CLR 29/24 A2989 RMK A01
KHHV 090435Z AUTO 12007KT 10SM CLR 29/24 A2989 RMK A01
KHHV 090415Z AUTO 14007KT 10SM CLR 29/24 A2989 RMK A01
KHHV 090355Z AUTO 12006KT 10SM CLR 29/24 A2989 RMK A01
KHHV 090335Z AUTO 12006KT 10SM CLR 29/24 A2989 RMK A01
KHHV 090315Z AUTO 12006KT 10SM CLR 30/24 A2988 RMK A01
KHHV 090255Z AUTO VRB06KT 10SM CLR 30/23 A2987 RMK A01
KHHV 090235Z AUTO VRB06KT 10SM CLR 30/24 A2986 RMK A01
KHHV 090215Z AUTO 12007KT 080V140 10SM CLR 30/24 A2986 RMK A01
KHHV 090155Z AUTO 11006KT 10SM CLR 31/24 A2985 RMK A01
KHHV 090135Z AUTO 10007KT 10SM CLR 31/24 A2985 RMK A01
KHHV 090115Z AUTO 10007KT 10SM CLR 31/24 A2984 RMK A01
KHHV 090055Z AUTO 09006KT 10SM CLR 31/24 A2984 RMK A01
KHHV 090035Z AUTO 09005KT 10SM CLR 32/24 A2984 RMK A01
KHHV 090015Z AUTO 11006KT 10SM CLR 32/24 A2984 RMK A01
KHHV 082355Z AUTO 09005KT 10SM CLR 32/24 A2984 RMK A01
KHHV 082335Z AUTO 10005KT 10SM FEW065 31/24 A2984 RMK A01
KHHV 082315Z AUTO VRB03KT 10SM FEW065 29/24 A2985 RMK A01
KHHV 082255Z AUTO 14004KT 10SM CLR 29/23 A2985 RMK A01
KHHV 082235Z AUTO VRB06KT 10SM CLR 29/23 A2986 RMK A01
KHHV 082215Z AUTO 20007KT 180V240 10SM CLR 29/23 A2986 RMK A01
KHHV 082155Z AUTO 23014KT 10SM FEW040 SCT046 SCT050 29/24 A2986 RMK A01
KHHV 082135Z AUTO 17005KT 10SM FEW029 SCT040 BKN050 29/24 A2986 RMK A01
KHHV 082115Z AUTO 15008KT 10SM SCT029 SCT036 30/24 A2987 RMK A01
KHHV 082055Z AUTO 13011G17KT 10SM SCT023 SCT036 SCT065 31/24 A2987 RMK A01
KHHV 082035Z AUTO 12008KT 10SM BKN022 32/24 A2988 RMK A01
KHHV 082015Z AUTO VRB04KT 10SM CLR 32/24 A2988 RMK A01
KHHV 081955Z AUTO 12006KT 10SM FEW024 33/24 A2989 RMK A01
KHHV 081935Z AUTO 14004KT 10SM SCT024 33/24 A2990 RMK A01
KHHV 081915Z AUTO 00000KT 10SM FEW024 SCT031 33/24 A2991 RMK A01
KHHV 081855Z AUTO VRB04KT 10SM SCT024 BKN031 BKN045 33/24 A2991 RMK A01
KHHV 081835Z AUTO 00000KT 10SM SCT024 SCT031 32/24 A2992 RMK A01
KHHV 081815Z AUTO 14005KT 10SM FEW024 33/24 A2992 RMK A01
KHHV 081755Z AUTO 13005KT 10SM CLR 33/24 A2993 RMK A01
KHHV 081735Z AUTO 14005KT 10SM CLR 32/23 A2994 RMK A01
KHHV 081715Z AUTO VRB05KT 10SM CLR 32/23 A2994 RMK A01
KHHV 081655Z AUTO 14006KT 10SM FEW023 32/23 A2995 RMK A01
KHHV 081635Z AUTO 14005KT 10SM SCT023 31/23 A2995 RMK A01
KHHV 081615Z AUTO 13005KT 10SM CLR 32/24 A2995 RMK A01
KHHV 081555Z AUTO 13005KT 10SM CLR 31/24 A2995 RMK A01
KHHV 081535Z AUTO VRB04KT 10SM CLR 30/23 A2994 RMK A01
KHHV 081515Z AUTO 14006KT 10SM CLR 30/23 A2994 RMK A01
KHHV 081455Z AUTO 13007KT 10SM CLR 29/23 A2994 RMK A01
KHHV 081435Z AUTO VRB05KT 10SM CLR 29/23 A2994 RMK A01
KHHV 081415Z AUTO 12007KT 080V140 10SM CLR 29/23 A2994 RMK A01
KHHV 081355Z AUTO 13007KT 090V160 10SM FEW026 30/23 A2994 RMK A01
KHHV 081335Z AUTO 14006KT 10SM FEW023 SCT028 29/23 A2994 RMK A01
KHHV 081315Z AUTO 13006KT 10SM BKN023 BKN028 29/23 A2993 RMK A01
KHHV 081255Z AUTO 12007KT 10SM SCT023 29/23 A2992 RMK A01
KHHV 081235Z AUTO 12007KT 080V140 10SM FEW024 29/23 A2992 RMK A01
KHHV 081215Z AUTO 14007KT 10SM SCT024 28/23 A2992 RMK A01
KHHV 081155Z AUTO 13008KT 070V150 10SM FEW023 28/23 A2991 RMK A01
KHHV 081135Z AUTO 13008KT 10SM FEW023 28/23 A2991 RMK A01
KHHV 081115Z AUTO 13009KT 10SM FEW024 29/23 A2991 RMK A01
KHHV 081055Z AUTO 13010KT 10SM FEW022 SCT028 28/23 A2992 RMK A01
KHHV 081035Z AUTO 13009KT 10SM CLR 28/23 A2991 RMK A01
KHHV 081015Z AUTO 13009G15KT 100V160 10SM CLR 29/23 A2992 RMK A01
KHHV 080955Z AUTO 13009G16KT 070V150 10SM CLR 29/23 A2992 RMK A01
KHHV 080935Z AUTO 13009KT 100V200 10SM BKN022 BKN027 29/24 A2992 RMK A01
KHHV 080915Z AUTO 12008G15KT 100V170 10SM BKN022 29/23 A2992 RMK A01
KHHV 080855Z AUTO 12012KT 10SM FEW021 29/23 A2993 RMK A01
KHHV 080835Z AUTO 11012KT 10SM FEW020 29/24 A2992 RMK A01
KHHV 080815Z AUTO 11013KT 10SM CLR 29/23 A2992 RMK A01
KHHV 080755Z AUTO 10013KT 10SM CLR 29/23 A2992 RMK A01
KHHV 080735Z AUTO 11011KT 10SM CLR 29/23 A2993 RMK A01
KHHV 080715Z AUTO 11011KT 10SM CLR 29/23 A2993 RMK A01
KHHV 080655Z AUTO 11010KT 10SM CLR 29/24 A2994 RMK A01
KHHV 080635Z AUTO 11009KT 10SM CLR 29/24 A2994 RMK A01
KHHV 080615Z AUTO 11008KT 10SM FEW020 29/24 A2995 RMK A01
KHHV 080555Z AUTO 10009KT 10SM CLR 29/24 A2996 RMK A01
KHHV 080535Z AUTO 11010KT 10SM CLR 29/23 A2996 RMK A01
KHHV 080515Z AUTO 11011KT 10SM CLR 29/23 A2997 RMK A01
KHHV 080455Z AUTO 11011KT 10SM CLR 29/23 A2997 RMK A01
KHHV 080435Z AUTO 11011KT 10SM CLR 29/24 A2997 RMK A01
KHHV 080415Z AUTO 12007G13KT 080V160 10SM CLR 29/23 A2997 RMK A01
KHHV 080355Z AUTO 11009KT 10SM CLR 29/23 A2997 RMK A01
KHHV 080335Z AUTO 12006KT 10SM CLR 28/23 A2996 RMK A01
KHHV 080315Z AUTO 12010KT 10SM CLR 28/22 A2996 RMK A01
KHHV 080255Z AUTO 12007KT 070V170 10SM CLR 28/23 A2996 RMK A01
KHHV 080235Z AUTO 13007KT 060V150 10SM CLR 28/23 A2996 RMK A01
KHHV 080215Z AUTO 12008G13KT 090V150 10SM CLR 28/23 A2996 RMK A01
KHHV 080155Z AUTO 12010KT 10SM CLR 29/23 A2995 RMK A01
KHHV 080135Z AUTO 12010KT 10SM CLR 29/23 A2995 RMK A01
KHHV 080115Z AUTO 11013KT 10SM CLR 29/23 A2995 RMK A01
KHHV 080055Z AUTO 12010KT 10SM CLR 28/22 A2995 RMK A01
KHHV 080035Z AUTO 10014KT 10SM FEW024 29/23 A2995 RMK A01
KHHV 080015Z AUTO 11018G25KT 10SM SCT024 30/23 A2995 RMK A01
KHHV 072355Z AUTO 13008G15KT 100V180 10SM CLR 30/22 A2995 RMK A01
KHHV 072335Z AUTO 11013KT 10SM CLR 31/23 A2996 RMK A01
KHHV 072315Z AUTO 12011KT 10SM FEW100 31/24 A2995 RMK A01
KHHV 072255Z AUTO 12013KT 10SM FEW095 31/24 A2995 RMK A01
KHHV 072235Z AUTO 11014G19KT 10SM CLR 32/24 A2995 RMK A01
KHHV 072215Z AUTO 12008KT 10SM FEW095 33/24 A2995 RMK A01
KHHV 072155Z AUTO 11010KT 10SM FEW080 33/24 A2995 RMK A01
KHHV 072135Z AUTO 11009KT 10SM FEW024 FEW029 FEW035 32/24 A2995 RMK A01
KHHV 072115Z AUTO 13010G16KT 10SM SCT024 BKN029 BKN035 32/24 A2995 RMK A01
KHHV 072055Z AUTO 09005KT 10SM CLR 33/24 A2996 RMK A01
KHHV 072035Z AUTO 14004KT 10SM FEW030 FEW049 SCT075 30/24 A2997 RMK A01
KHHV 072015Z AUTO 14005KT 10SM SCT023 BKN032 OVC075 31/24 A2998 RMK A01
KHHV 071955Z AUTO 15010KT 10SM BKN022 BKN035 BKN046 33/24 A2998 RMK A01
KHHV 071935Z AUTO 11007KT 10SM FEW020 FEW027 36/25 A2999 RMK A01
KHHV 071915Z AUTO 11007KT 10SM FEW023 34/25 A3000 RMK A01
KHHV 071855Z AUTO 12006KT 10SM CLR 34/24 A3001 RMK A01
KHHV 071835Z AUTO VRB05KT 10SM CLR 34/24 A3001 RMK A01
KHHV 071815Z AUTO 12008KT 10SM FEW024 33/24 A3002 RMK A01
KHHV 071755Z AUTO 12009KT 10SM CLR 34/24 A3002 RMK A01
KHHV 071735Z AUTO 12007KT 10SM CLR 33/24 A3003 RMK A01
KHHV 071715Z AUTO 12006KT 10SM FEW024 33/24 A3003 RMK A01
KHHV 071655Z AUTO 12006KT 10SM FEW024 33/24 A3003 RMK A01
KHHV 071635Z AUTO VRB06KT 10SM CLR 33/24 A3004 RMK A01
KHHV 071615Z AUTO 13008KT 10SM FEW022 32/24 A3004 RMK A01
KHHV 071555Z AUTO 12007KT 070V140 10SM FEW021 31/24 A3004 RMK A01
KHHV 071535Z AUTO 12007KT 10SM CLR 30/24 A3004 RMK A01
KHHV 071515Z AUTO VRB05G10KT 10SM CLR 30/24 A3004 RMK A01
KHHV 071455Z AUTO VRB06KT 10SM CLR 30/24 A3003 RMK A01
KHHV 071435Z AUTO 12009KT 10SM CLR 30/24 A3003 RMK A01
KHHV 071415Z AUTO 13007KT 10SM CLR 30/24 A3003 RMK A01
KHHV 071355Z AUTO VRB05KT 10SM CLR 30/24 A3002 RMK A01
KHHV 071335Z AUTO VRB04G10KT 10SM CLR 29/23 A3002 RMK A01
KHHV 071315Z AUTO 13006KT 10SM CLR 29/23 A3002 RMK A01
KHHV 071255Z AUTO 13006KT 10SM CLR 29/24 A3001 RMK A01
KHHV 071235Z AUTO 12006KT 10SM CLR 29/23 A3001 RMK A01
KHHV 071215Z AUTO 12008KT 10SM FEW024 FEW030 FEW038 29/24 A3001 RMK A01
KHHV 071155Z AUTO 11007KT 050V150 10SM SCT024 BKN030 BKN038 29/24 A3001 RMK A01
KHHV 071135Z AUTO 13006KT 10SM CLR 29/24 A3000 RMK A01
KHHV 071115Z AUTO 14008KT FEW022 29/23 A3000 RMK A01
KHHV 071055Z AUTO 15010KT 10SM FEW022 FEW037 29/24 A3000 RMK A01
KHHV 071035Z AUTO 15009KT 10SM CLR 29/24 A2999 RMK A01
KHHV 071015Z AUTO 15007KT 10SM FEW022 FEW027 FEW036 29/24 A3000 RMK A01
KHHV 070955Z AUTO 16007KT 10SM SCT024 SCT034 29/24 A2999 RMK A01
KHHV 070935Z AUTO 15009KT 10SM BKN023 BKN038 29/24 A3000 RMK A01
KHHV 070915Z AUTO 14008KT 10SM SCT023 SCT028 SCT038 29/24 A3000 RMK A01
KHHV 070855Z AUTO 13008KT 10SM FEW025 29/24 A3000 RMK A01
KHHV 070835Z AUTO 14007KT 10SM CLR 29/24 A3000 RMK A01
KHHV 070815Z AUTO 14008KT 10SM CLR 29/23 A3000 RMK A01
KHHV 070755Z AUTO 15009KT 10SM CLR 29/23 A3001 RMK A01
KHHV 070735Z AUTO 15011KT 10SM CLR 29/24 A3001 RMK A01
KHHV 070715Z AUTO 14009KT 10SM FEW025 FEW039 29/23 A3001 RMK A01
KHHV 070655Z AUTO 14011KT 10SM CLR 29/23 A3002 RMK A01
KHHV 070635Z AUTO 13009G16KT 10SM FEW025 FEW030 29/23 A3002 RMK A01
KHHV 070615Z AUTO 13010G15KT 10SM SCT025 SCT030 29/24 A3002 RMK A01
KHHV 070555Z AUTO 12011KT 10SM FEW025 30/24 A3002 RMK A01
KHHV 070535Z AUTO 12012KT 10SM FEW026 30/23 A3002 RMK A01
KHHV 070515Z AUTO 12010G17KT 050V210 10SM FEW025 30/24 A3002 RMK A01
KHHV 070455Z AUTO 13009G14KT 100V190 10SM FEW024 30/24 A3002 RMK A01
KHHV 070435Z AUTO 12012KT 10SM FEW024 30/24 A3003 RMK A01
KHHV 070415Z AUTO 11012KT 10SM FEW024 30/24 A3003 RMK A01
KHHV 070355Z AUTO 11012KT 10SM CLR 30/24 A3003 RMK A01
KHHV 070335Z AUTO 11011KT 10SM CLR 30/23 A3003 RMK A01
KHHV 070315Z AUTO 11012KT 10SM FEW023 30/23 A3002 RMK A01
KHHV 070255Z AUTO 11012KT 10SM FEW023 30/24 A3002 RMK A01
KHHV 070235Z AUTO 11012KT 10SM CLR 30/24 A3001 RMK A01
KHHV 070215Z AUTO 12008KT 10SM CLR 29/23 A3001 RMK A01
KHHV 070155Z AUTO 12009KT 10SM CLR 29/23 A3000 RMK A01
KHHV 070135Z AUTO VRB06G12KT 10SM CLR 29/24 A2999 RMK A01
KHHV 070115Z AUTO 12007KT 060V160 10SM CLR 30/24 A2999 RMK A01
KHHV 070055Z AUTO 13008KT 10SM CLR 30/23 A2998 RMK A01
KHHV 070035Z AUTO 12007KT 080V160 10SM CLR 30/23 A2999 RMK A01
KHHV 070015Z AUTO VRB05KT 10SM CLR 30/23 A2999 RMK A01
KHHV 062355Z AUTO 13006KT 10SM CLR 30/23 A2999 RMK A01
KHHV 062335Z AUTO 13006KT 10SM FEW028 FEW032 31/23 A3000 RMK A01
KHHV 062315Z AUTO VRB06KT 10SM FEW026 31/20 A3000 RMK A01
KHHV 062255Z AUTO 12010G16KT 080V140 10SM CLR 31/23 A3001 RMK A01
KHHV 062235Z AUTO 15004KT 10SM CLR 31/24 A3001 RMK A01
KHHV 062215Z AUTO 19003KT 10SM CLR 31/24 A3000 RMK A01
KHHV 062155Z AUTO VRB04KT 10SM CLR 31/24 A3001 RMK A01
KHHV 062135Z AUTO 20006KT 10SM FEW026 31/23 A3001 RMK A01
KHHV 062115Z AUTO VRB06KT 10SM SCT025 SCT038 31/24 A3002 RMK A01
KHHV 062055Z AUTO 19007KT 10SM SCT024 BKN030 BKN037 30/24 A3002 RMK A01
KHHV 062035Z AUTO 19007KT 10SM SCT024 30/24 A3002 RMK A01
KHHV 062015Z AUTO 18007KT 10SM CLR 30/24 A3002 RMK A01
KHHV 061955Z AUTO 19008KT 10SM CLR 31/23 A3002 RMK A01
KHHV 061935Z AUTO 18007KT 10SM CLR 31/24 A3002 RMK A01
KHHV 061915Z AUTO 18008KT 10SM CLR 31/24 A3003 RMK A01
KHHV 061855Z AUTO 18007KT 10SM CLR 31/23 A3004 RMK A01
KHHV 061835Z AUTO 18009KT 10SM FEW020 31/23 A3004 RMK A01
KHHV 061815Z AUTO VRB05KT 10SM FEW019 FEW025 31/25 A3004 RMK A01
KHHV 061755Z AUTO 16005KT 10SM SCT021 SCT025 31/25 A3005 RMK A01
KHHV 061735Z AUTO 17009KT 10SM SCT022 31/24 A3006 RMK A01
KHHV 061715Z AUTO 18010KT 10SM FEW023 31/24 A3006 RMK A01
KHHV 061655Z AUTO 18009KT 10SM FEW023 31/24 A3006 RMK A01
KHHV 061635Z AUTO 17010KT 10SM CLR 30/24 A3006 RMK A01
KHHV 061615Z AUTO 17011KT 10SM FEW024 30/24 A3006 RMK A01
KHHV 061555Z AUTO 17010KT 10SM FEW025 30/24 A3006 RMK A01
KHHV 061535Z AUTO 16008G13KT 10SM CLR 30/23 A3006 RMK A01
KHHV 061515Z AUTO VRB06G11KT 10SM CLR 29/24 A3006 RMK A01
KHHV 061455Z AUTO 16007KT 130V190 10SM CLR 29/23 A3005 RMK A01
KHHV 061435Z AUTO 18009KT 10SM CLR 29/23 A3005 RMK A01
KHHV 061415Z AUTO 17010KT 10SM FEW023 29/24 A3005 RMK A01
KHHV 061355Z AUTO 18009KT 10SM CLR 29/24 A3004 RMK A01
KHHV 061335Z AUTO 20009KT 10SM SCT024 29/23 A3004 RMK A01
KHHV 061315Z AUTO 17011KT 10SM BKN024 29/24 A3004 RMK A01
KHHV 061255Z AUTO 17010KT 10SM SCT024 29/24 A3003 RMK A01
KHHV 061235Z AUTO 19011KT 10SM CLR 29/23 A3002 RMK A01
KHHV 061215Z AUTO 19010KT 10SM CLR 29/24 A3002 RMK A01
KHHV 061155Z AUTO 17009KT 10SM FEW021 FEW034 FEW047 29/24 A3002 RMK A01
KHHV 061135Z AUTO 19010KT 10SM SCT020 BKN032 SCT040 29/24 A3002 RMK A01
KHHV 061115Z AUTO 18010KT 10SM BKN020 BKN030 OVC036 29/24 A3001 RMK A01
KHHV 061055Z AUTO 19010KT 170V230 10SM BKN022 OVC035 29/24 A3001 RMK A01
KHHV 061035Z AUTO 19010G16KT BKN022 BKN038 OVC046 28/24 A3001 RMK A01
KHHV 061015Z AUTO 19012KT 10SM SCT022 SCT037 28/24 A3001 RMK A01
KHHV 060955Z AUTO 18013KT 10SM FEW022 29/23 A3001 RMK A01
KHHV 060935Z AUTO 17012KT 10SM CLR 29/23 A3000 RMK A01
KHHV 060915Z AUTO 16009G16KT 10SM CLR 29/23 A3000 RMK A01
KHHV 060855Z AUTO 16008G15KT 10SM FEW030 FEW035 29/23 A3000 RMK A01
KHHV 060835Z AUTO 16007G13KT 10SM BKN028 BKN033 29/23 A3000 RMK A01
KHHV 060815Z AUTO 18009KT 10SM SCT028 BKN032 28/24 A3000 RMK A01
KHHV 060755Z AUTO 18007KT 10SM CLR 28/24 A3001 RMK A01
KHHV 060735Z AUTO 20007KT 10SM FEW070 29/24 A3002 RMK A01
KHHV 060715Z AUTO 19007KT 10SM BKN070 28/24 A3001 RMK A01
KHHV 060655Z AUTO 20008KT 170V230 10SM SCT055 OVC070 29/24 A3001 RMK A01
KHHV 060635Z AUTO VRB06G11KT 10SM BKN055 29/24 A3002 RMK A01
KHHV 060615Z AUTO VRB06G14KT 130V240 10SM FEW041 FEW050 SCT065 29/23 A3002 RMK A01
KHHV 060555Z AUTO 21009G16KT 180V250 10SM FEW021 BKN040 OVC065 28/24 A3002 RMK A01
KHHV 060535Z AUTO 19011G20KT 10SM SCT022 SCT032 BKN039 28/24 A3002 RMK A01
KHHV 060515Z AUTO 18012KT 10SM FEW031 FEW038 29/24 A3002 RMK A01
KHHV 060455Z AUTO 16008KT 140V200 10SM CLR 29/23 A3002 RMK A01
KHHV 060435Z AUTO 17007KT 10SM FEW019 29/24 A3002 RMK A01
KHHV 060415Z AUTO 15007KT 130V190 10SM SCT019 28/24 A3002 RMK A01
KHHV 060355Z AUTO 16007KT 10SM FEW017 29/25 A3001 RMK A01
KHHV 060335Z AUTO 13008KT 10SM FEW018 29/24 A3000 RMK A01
KHHV 060315Z AUTO 13007KT 070V210 10SM CLR 29/24 A2999 RMK A01
KHHV 060255Z AUTO 12008KT 10SM FEW020 FEW026 SCT031 29/24 A2999 RMK A01
KHHV 060235Z AUTO 11010KT 10SM SCT020 SCT026 BKN031 29/25 A2999 RMK A01
KHHV 060215Z AUTO 10011KT 10SM FEW027 FEW034 30/25 A3000 RMK A01
KHHV 060155Z AUTO 11011KT 10SM FEW032 FEW038 29/24 A3000 RMK A01
KHHV 060135Z AUTO 13007KT 10SM FEW021 FEW029 BKN040 28/24 A3000 RMK A01
KHHV 060115Z AUTO 15008KT 10SM FEW021 FEW030 BKN040 29/24 A2999 RMK A01
KHHV 060055Z AUTO VRB06G11KT 10SM FEW018 SCT023 BKN037 29/24 A2999 RMK A01
KHHV 060035Z AUTO 14005KT 10SM SCT019 BKN038 OVC070 28/25 A2998 RMK A01
KHHV 060015Z AUTO 16009KT 140V200 10SM SCT020 SCT035 BKN049 29/25 A2997 RMK A01
KHHV 052355Z AUTO 14007KT 10SM FEW020 SCT036 SCT050 29/24 A2997 RMK A01
KHHV 052335Z AUTO 13009KT 10SM FEW018 29/24 A2998 RMK A01
KHHV 052315Z AUTO 13008KT 100V160 10SM CLR 29/25 A2997 RMK A01
KHHV 052255Z AUTO 12007G12KT 090V150 10SM FEW032 FEW039 FEW045 29/25 A2996 RMK A01
KHHV 052235Z AUTO 10011KT 10SM FEW031 FEW039 30/24 A2996 RMK A01
KHHV 052215Z AUTO 10012KT 10SM CLR 30/25 A2996 RMK A01
KHHV 052155Z AUTO 08010KT 10SM CLR 29/24 A2996 RMK A01
KHHV 052135Z AUTO 07007KT 10SM CLR 28/24 A2995 RMK A01
KHHV 052115Z AUTO 07008KT 10SM CLR 27/24 A2995 RMK A01
KHHV 052055Z AUTO 06009KT 2 1/2SM BR FEW028 FEW035 SCT065 27/25 A2996 RMK A01
KHHV 052035Z AUTO 03006KT 2SM BR SCT025 BKN030 27/25 A2997 RMK A01
KHHV 052015Z AUTO 35006KT 1/4SM FG BKN005 OVC021 27/24 A2998 RMK A01
KHHV 051955Z AUTO 23008KT 150V250 3SM HZ FEW006 BKN021 BKN026 31/24 A2999 RMK A01
KHHV 051935Z AUTO 36003KT 10SM BKN022 BKN033 33/25 A2999 RMK A01
KHHV 051915Z AUTO 33003KT 10SM SCT023 35/25 A2999 RMK A01
KHHV 051855Z AUTO 00000KT 10SM FEW024 34/25 A2999 RMK A01
KHHV 051835Z AUTO 00000KT 10SM CLR 32/25 A3000 RMK A01
KHHV 051815Z AUTO 00000KT 10SM FEW039 FEW048 31/24 A3000 RMK A01
KHHV 051755Z AUTO 18005KT 10SM FEW018 FEW037 30/24 A3001 RMK A01
KHHV 051735Z AUTO 17005KT 10SM BKN017 31/25 A3001 RMK A01
KHHV 051715Z AUTO 26007KT 10SM SCT016 BKN023 30/24 A3001 RMK A01
KHHV 051655Z AUTO 21008KT 170V260 10SM SCT016 BKN024 BKN031 30/25 A3001 RMK A01
KHHV 051635Z AUTO 15005KT 10SM FEW031 SCT039 31/25 A3002 RMK A01
KHHV 051615Z AUTO 13006KT 10SM FEW070 31/24 A3001 RMK A01
KHHV 051555Z AUTO VRB05KT 10SM FEW033 SCT065 30/25 A3001 RMK A01
KHHV 051535Z AUTO 12005KT 10SM FEW016 SCT022 BKN035 29/25 A3001 RMK A01
KHHV 051515Z AUTO 13005KT 10SM FEW023 FEW028 SCT034 29/25 A3000 RMK A01
KHHV 051455Z AUTO VRB04KT 10SM SCT028 SCT034 29/25 A2999 RMK A01
KHHV 051435Z AUTO VRB05KT 10SM BKN029 29/25 A2999 RMK A01
KHHV 051415Z AUTO VRB05KT 10SM CLR 29/25 A2998 RMK A01
KHHV 051355Z AUTO 12007KT 10SM CLR 29/25 A2997 RMK A01
KHHV 051335Z AUTO 11006KT 10SM CLR 29/25 A2997 RMK A01
KHHV 051315Z AUTO 09006KT 10SM CLR 28/25 A2996 RMK A01
KHHV 051255Z AUTO 11006KT 10SM CLR 27/25 A2996 RMK A01
KHHV 051235Z AUTO VRB05KT 10SM CLR 27/25 A2996 RMK A01
KHHV 051215Z AUTO VRB03KT 10SM FEW048 SCT055 SCT070 27/26 A2995 RMK A01
KHHV 051155Z AUTO VRB04KT 10SM SCT037 BKN047 OVC075 27/26 A2995 RMK A01
KHHV 051135Z AUTO 12006KT 8SM FEW029 BKN037 OVC044 27/26 A2994 RMK A01
KHHV 051115Z AUTO 12007KT 9SM FEW019 BKN031 OVC080 27/25 A2994 RMK A01
KHHV 051055Z AUTO 13007G13KT 100V180 10SM SCT020 BKN060 OVC075 27/24 A2994 RMK A01
KHHV 051035Z AUTO 20010KT 7SM SCT024 BKN070 OVC085 26/24 A2993 RMK A01
KHHV 051015Z AUTO 18015KT 10SM SCT026 BKN039 BKN060 27/23 A2992 RMK A01
KHHV 050955Z AUTO 20013G19KT 10SM FEW021 SCT028 BKN050 28/23 A2992 RMK A01
KHHV 050935Z AUTO 18011KT 10SM SCT023 SCT032 29/24 A2992 RMK A01
KHHV 050915Z AUTO 16008G15KT 10SM BKN022 BKN032 BKN070 29/24 A2992 RMK A01
KHHV 050855Z AUTO 18011KT 10SM FEW020 FEW070 29/24 A2992 RMK A01
KHHV 050835Z AUTO 17010KT 10SM CLR 29/24 A2992 RMK A01
KHHV 050815Z AUTO 17009KT 10SM SCT022 SCT039 SCT055 29/24 A2992 RMK A01
KHHV 050755Z AUTO 16008KT 10SM FEW019 SCT024 29/24 A2993 RMK A01
KHHV 050735Z AUTO 15009KT 10SM FEW020 FEW026 29/24 A2993 RMK A01
KHHV 050715Z AUTO 16008KT 10SM FEW019 FEW026 29/24 A2994 RMK A01
KHHV 050655Z AUTO 14009KT 10SM FEW021 29/24 A2994 RMK A01
KHHV 050635Z AUTO 15009KT 10SM SCT021 29/24 A2994 RMK A01
KHHV 050615Z AUTO 13008KT 10SM FEW021 29/24 A2995 RMK A01
KHHV 050555Z AUTO 13008KT 10SM FEW022 29/24 A2994 RMK A01
KHHV 050535Z AUTO 14008KT 10SM CLR 28/23 A2994 RMK A01
KHHV 050515Z AUTO 14009KT 10SM CLR 28/24 A2994 RMK A01
KHHV 050455Z AUTO 12007KT 10SM CLR 28/24 A2995 RMK A01
KHHV 050435Z AUTO 12008KT 10SM FEW016 28/24 A2995 RMK A01
KHHV 050415Z AUTO 11011KT 10SM FEW017 28/24 A2995 RMK A01
KHHV 050355Z AUTO 11011KT 10SM FEW017 29/24 A2995 RMK A01
KHHV 050335Z AUTO 11013KT 10SM FEW020 FEW027 29/24 A2995 RMK A01
KHHV 050315Z AUTO 11012KT 10SM CLR 29/24 A2995 RMK A01
KHHV 050255Z AUTO 11011KT 10SM FEW019 28/24 A2994 RMK A01
KHHV 050235Z AUTO 11012KT 10SM FEW019 28/24 A2993 RMK A01
KHHV 050215Z AUTO 11013KT 10SM FEW017 28/24 A2992 RMK A01
KHHV 050155Z AUTO 11014KT 10SM SCT016 28/25 A2991 RMK A01
KHHV 050135Z AUTO 12013KT 10SM FEW017 28/25 A2991 RMK A01
KHHV 050115Z AUTO 11014KT 10SM SCT016 SCT027 BKN044 28/25 A2991 RMK A01
KHHV 050055Z AUTO 13008KT 5SM HZ FEW004 SCT019 BKN037 28/25 A2990 RMK A01
KHHV 050035Z AUTO 13011G18KT 100V160 10SM SCT017 BKN026 BKN037 29/24 A2990 RMK A01
KHHV 050015Z AUTO 10012KT 10SM SCT019 SCT026 31/25 A2990 RMK A01
KHHV 042355Z AUTO 10012KT 10SM CLR 32/25 A2989 RMK A01
KHHV 042335Z AUTO 09013KT 10SM FEW017 FEW022 SCT028 32/25 A2990 RMK A01
KHHV 042315Z AUTO 09014KT 10SM SCT017 31/25 A2990 RMK A01
KHHV 042255Z AUTO 07013KT 10SM FEW015 32/25 A2990 RMK A01
KHHV 042235Z AUTO 08014KT 10SM CLR 31/25 A2990 RMK A01
KHHV 042215Z AUTO 07014KT 10SM CLR 31/24 A2991 RMK A01
KHHV 042155Z AUTO 06013KT 10SM CLR 31/24 A2990 RMK A01
KHHV 042135Z AUTO 07013KT 10SM CLR 31/24 A2990 RMK A01
KHHV 042115Z AUTO 07012KT 10SM CLR 31/24 A2990 RMK A01
KHHV 042055Z AUTO 07012KT 10SM CLR 30/25 A2990 RMK A01
KHHV 042035Z AUTO 06012KT 10SM CLR 30/24 A2991 RMK A01
KHHV 042015Z AUTO 07012KT 10SM CLR 31/25 A2991 RMK A01
KHHV 041955Z AUTO 07011KT 10SM CLR 30/24 A2992 RMK A01
KHHV 041935Z AUTO 07012KT 10SM CLR 30/24 A2993 RMK A01
KHHV 041915Z AUTO 07013KT 10SM CLR 30/24 A2994 RMK A01
KHHV 041855Z AUTO 06012KT 10SM CLR 31/24 A2996 RMK A01
KHHV 041835Z AUTO 07012KT 10SM CLR 30/24 A2997 RMK A01
KHHV 041815Z AUTO 08012KT 5SM HZ CLR 31/24 A2997 RMK A01
KHHV 041755Z AUTO 08013KT 10SM CLR 31/24 A2997 RMK A01
KHHV 041735Z AUTO 08013KT 10SM CLR 31/24 A2997 RMK A01
KHHV 041715Z AUTO 08013KT 10SM FEW026 30/25 A2998 RMK A01
KHHV 041655Z AUTO 08015KT 10SM FEW026 31/25 A2998 RMK A01
KHHV 041635Z AUTO 08011KT 10SM CLR 31/25 A2998 RMK A01
KHHV 041615Z AUTO 08006G13KT 8SM FEW020 FEW027 SCT046 31/24 A2998 RMK A01
KHHV 041555Z AUTO 07011KT 10SM FEW017 SCT025 31/25 A2997 RMK A01
KHHV 041535Z AUTO 06006KT 10SM CLR 31/25 A2996 RMK A01
KHHV 041515Z AUTO 07006KT 10SM CLR 32/25 A2996 RMK A01
KHHV 041455Z AUTO 08007KT 10SM FEW023 FEW034 32/25 A2996 RMK A01
KHHV 041435Z AUTO 08010KT 10SM BKN022 BKN027 BKN034 32/25 A2996 RMK A01
KHHV 041415Z AUTO 08009KT 10SM FEW022 FEW028 30/25 A2995 RMK A01
KHHV 041355Z AUTO 07008KT 10SM CLR 30/25 A2994 RMK A01
KHHV 041335Z AUTO 12005KT 10SM CLR 30/25 A2994 RMK A01
KHHV 041315Z AUTO 10005KT 10SM CLR 30/25 A2994 RMK A01
KHHV 041255Z AUTO 09003KT 10SM CLR 29/25 A2993 RMK A01
KHHV 041235Z AUTO 00000KT 10SM FEW040 FEW050 SCT075 28/24 A2993 RMK A01
KHHV 041215Z AUTO 17007G14KT 10SM SCT022 BKN070 OVC095 28/23 A2993 RMK A01
KHHV 041155Z AUTO 15/04000015KT 10SM SCT018 BKN025 BKN033 31/24 A2992 RMK A01
KHHV 041135Z AUTO 08009KT 10SM FEW021 SCT026 BKN034 31/25 A2992 RMK A01
KHHV 041115Z AUTO 09009KT 10SM FEW019 SCT023 SCT029 30/25 A2992 RMK A01
KHHV 041055Z AUTO 11009KT 10SM CLR 29/25 A2991 RMK A01
KHHV 041035Z AUTO 11010KT 10SM CLR 29/24 A2991 RMK A01
KHHV 041015Z AUTO 11009KT 10SM CLR 29/24 A2990 RMK A01
KHHV 040955Z AUTO 11012KT 10SM FEW021 FEW027 29/24 A2990 RMK A01
KHHV 040935Z AUTO 11014KT 10SM SCT021 SCT027 BKN035 29/24 A2989 RMK A01
KHHV 040915Z AUTO 12013KT 10SM FEW021 29/24 A2989 RMK A01
KHHV 040855Z AUTO 13011G18KT 10SM CLR 29/24 A2990 RMK A01
KHHV 040835Z AUTO 12010KT 100V160 10SM CLR 29/24 A2991 RMK A01
KHHV 040815Z AUTO 12013KT 10SM FEW021 29/24 A2991 RMK A01
KHHV 040755Z AUTO 12011KT 080V150 10SM FEW021 29/24 A2991 RMK A01
KHHV 040735Z AUTO 12015KT 10SM FEW021 29/24 A2991 RMK A01
KHHV 040715Z AUTO 11017KT 10SM FEW019 29/24 A2992 RMK A01
KHHV 040655Z AUTO 11018KT 10SM FEW019 29/24 A2992 RMK A01
KHHV 040635Z AUTO 11015KT 10SM SCT019 SCT026 SCT035 29/24 A2993 RMK A01
KHHV 040615Z AUTO 11016KT 10SM SCT020 29/24 A2994 RMK A01
KHHV 040555Z AUTO 11016KT 10SM SCT019 29/24 A2995 RMK A01
KHHV 040535Z AUTO 11019KT 10SM SCT021 29/24 A2995 RMK A01
KHHV 040515Z AUTO 10019KT 10SM SCT022 SCT027 29/24 A2995 RMK A01
KHHV 040455Z AUTO 11021KT 10SM FEW021 SCT027 SCT032 29/24 A2994 RMK A01
KHHV 040435Z AUTO 11021KT 10SM FEW022 29/24 A2994 RMK A01
KHHV 040415Z AUTO 11020KT 10SM CLR 30/24 A2994 RMK A01
KHHV 040355Z AUTO 09022KT 10SM CLR 31/24 A2994 RMK A01
KHHV 040335Z AUTO 10021KT 10SM FEW019 31/24 A2994 RMK A01
KHHV 040315Z AUTO 09020KT 10SM FEW018 31/24 A2994 RMK A01
KHHV 040255Z AUTO 09019KT 10SM FEW017 FEW032 31/24 A2993 RMK A01
KHHV 040235Z AUTO 09020KT 10SM CLR 31/24 A2993 RMK A01
KHHV 040215Z AUTO 09021KT 10SM CLR 30/24 A2992 RMK A01
KHHV 040155Z AUTO 10023KT 10SM CLR 30/24 A2991 RMK A01
KHHV 040135Z AUTO 10022KT 10SM FEW021 30/24 A2990 RMK A01
KHHV 040115Z AUTO 10020KT 10SM FEW021 31/24 A2991 RMK A01
KHHV 040055Z AUTO 10018KT 10SM CLR 31/24 A2991 RMK A01
KHHV 040035Z AUTO 09017KT 10SM CLR 32/24 A2991 RMK A01
KHHV 040015Z AUTO 10017KT 10SM CLR 31/23 A2991 RMK A01
KHHV 032355Z AUTO 10014KT 10SM CLR 31/22 A2991 RMK A01